Index of /mirror/wikimedia.org/dumps/dewiki/20200701

[ICO]NameLast modifiedSize

[PARENTDIR]Parent Directory  -
[ARC]dewiki-20200701-abstract.xml.gz2020-07-06 12:14 313M
[ARC]dewiki-20200701-abstract1.xml.gz2020-07-06 12:10 80M
[ARC]dewiki-20200701-abstract2.xml.gz2020-07-06 10:56 42M
[ARC]dewiki-20200701-abstract3.xml.gz2020-07-06 11:18 41M
[ARC]dewiki-20200701-abstract4.xml.gz2020-07-06 12:13 45M
[ARC]dewiki-20200701-abstract5.xml.gz2020-07-06 11:33 48M
[ARC]dewiki-20200701-abstract6.xml.gz2020-07-06 12:07 57M
[ARC]dewiki-20200701-all-titles-in-ns0.gz2020-07-06 05:40 22M
[ARC]dewiki-20200701-all-titles.gz2020-07-06 05:41 40M
[ARC]dewiki-20200701-babel.sql.gz2020-07-02 17:01 12K
[ARC]dewiki-20200701-category.sql.gz2020-07-02 14:05 5.1M
[ARC]dewiki-20200701-categorylinks.sql.gz2020-07-02 15:11 311M
[ARC]dewiki-20200701-change_tag.sql.gz2020-07-02 16:47 67M
[ARC]dewiki-20200701-change_tag_def.sql.gz2020-07-02 14:04 1.3K
[ARC]dewiki-20200701-externallinks.sql.gz2020-07-02 17:06 886M
[ARC]dewiki-20200701-flaggedimages.sql.gz2020-07-02 16:13 21G
[ARC]dewiki-20200701-flaggedpage_config.sql.gz2020-07-02 16:43 824
[ARC]dewiki-20200701-flaggedpage_pending.sql.gz2020-07-02 14:07 196K
[ARC]dewiki-20200701-flaggedpages.sql.gz2020-07-02 15:08 33M
[ARC]dewiki-20200701-flaggedrevs.sql.gz2020-07-02 16:59 1.3G
[ARC]dewiki-20200701-flaggedrevs_promote.sql.gz2020-07-02 17:09 26M
[ARC]dewiki-20200701-flaggedrevs_statistics.sql.gz2020-07-02 14:11 6.5M
[ARC]dewiki-20200701-flaggedrevs_tracking.sql.gz2020-07-02 17:13 234K
[ARC]dewiki-20200701-flaggedtemplates.sql.gz2020-07-02 14:50 8.1G
[ARC]dewiki-20200701-geo_tags.sql.gz2020-07-02 14:09 37M
[ARC]dewiki-20200701-image.sql.gz2020-07-02 15:05 14M
[ARC]dewiki-20200701-imagelinks.sql.gz2020-07-02 16:50 103M
[ARC]dewiki-20200701-iwlinks.sql.gz2020-07-02 17:00 29M
[ARC]dewiki-20200701-langlinks.sql.gz2020-07-02 16:41 222M
[   ]dewiki-20200701-md5sums.json2020-07-09 15:17 39K
[TXT]dewiki-20200701-md5sums.txt2020-07-09 15:17 37K
[ARC]dewiki-20200701-page.sql.gz2020-07-02 16:45 248M
[ARC]dewiki-20200701-page_props.sql.gz2020-07-02 16:52 71M
[ARC]dewiki-20200701-page_restrictions.sql.gz2020-07-02 16:48 1.5M
[ARC]dewiki-20200701-pagelinks.sql.gz2020-07-02 15:17 1.0G
[ARC]dewiki-20200701-pages-articles-multistream-index.txt.bz22020-07-03 15:22 47M
[ARC]dewiki-20200701-pages-articles-multistream-index1.txt-p1p262468.bz22020-07-03 13:23 1.2M
[ARC]dewiki-20200701-pages-articles-multistream-index2.txt-p262469p1095940.bz22020-07-03 13:39 3.3M
[ARC]dewiki-20200701-pages-articles-multistream-index3.txt-p1095941p2595940.bz22020-07-03 13:45 5.0M
[ARC]dewiki-20200701-pages-articles-multistream-index3.txt-p2595941p2920048.bz22020-07-03 12:56 1.1M
[ARC]dewiki-20200701-pages-articles-multistream-index4.txt-p2920049p4420048.bz22020-07-03 13:43 5.2M
[ARC]dewiki-20200701-pages-articles-multistream-index4.txt-p4420049p5466275.bz22020-07-03 13:24 3.6M
[ARC]dewiki-20200701-pages-articles-multistream-index5.txt-p5466276p6966275.bz22020-07-03 14:41 6.6M
[ARC]dewiki-20200701-pages-articles-multistream-index5.txt-p6966276p8342168.bz22020-07-03 14:42 6.5M
[ARC]dewiki-20200701-pages-articles-multistream-index6.txt-p8342169p9842168.bz22020-07-03 14:45 6.5M
[ARC]dewiki-20200701-pages-articles-multistream-index6.txt-p9842169p11342168.bz22020-07-03 14:51 7.9M
[ARC]dewiki-20200701-pages-articles-multistream-index6.txt-p11342169p11361661.bz22020-07-03 13:46 118K
[ARC]dewiki-20200701-pages-articles-multistream.xml.bz22020-07-03 15:20 5.5G
[ARC]dewiki-20200701-pages-articles-multistream1.xml-p1p262468.bz22020-07-03 13:23 456M
[ARC]dewiki-20200701-pages-articles-multistream2.xml-p262469p1095940.bz22020-07-03 13:39 587M
[ARC]dewiki-20200701-pages-articles-multistream3.xml-p1095941p2595940.bz22020-07-03 13:45 620M
[ARC]dewiki-20200701-pages-articles-multistream3.xml-p2595941p2920048.bz22020-07-03 12:56 125M
[ARC]dewiki-20200701-pages-articles-multistream4.xml-p2920049p4420048.bz22020-07-03 13:43 583M
[ARC]dewiki-20200701-pages-articles-multistream4.xml-p4420049p5466275.bz22020-07-03 13:24 394M
[ARC]dewiki-20200701-pages-articles-multistream5.xml-p5466276p6966275.bz22020-07-03 14:41 662M
[ARC]dewiki-20200701-pages-articles-multistream5.xml-p6966276p8342168.bz22020-07-03 14:42 656M
[ARC]dewiki-20200701-pages-articles-multistream6.xml-p8342169p9842168.bz22020-07-03 14:45 704M
[ARC]dewiki-20200701-pages-articles-multistream6.xml-p9842169p11342168.bz22020-07-03 14:51 800M
[ARC]dewiki-20200701-pages-articles-multistream6.xml-p11342169p11361661.bz22020-07-03 13:46 9.2M
[ARC]dewiki-20200701-pages-articles.xml.bz22020-07-03 03:42 5.2G
[ARC]dewiki-20200701-pages-articles1.xml-p1p262468.bz22020-07-03 00:55 452M
[ARC]dewiki-20200701-pages-articles2.xml-p262469p1095940.bz22020-07-03 01:03 572M
[ARC]dewiki-20200701-pages-articles3.xml-p1095941p2595940.bz22020-07-03 01:06 594M
[ARC]dewiki-20200701-pages-articles3.xml-p2595941p2920048.bz22020-07-03 00:39 119M
[ARC]dewiki-20200701-pages-articles4.xml-p2920049p4420048.bz22020-07-03 01:05 555M
[ARC]dewiki-20200701-pages-articles4.xml-p4420049p5466275.bz22020-07-03 00:54 375M
[ARC]dewiki-20200701-pages-articles5.xml-p5466276p6966275.bz22020-07-03 01:39 628M
[ARC]dewiki-20200701-pages-articles5.xml-p6966276p8342168.bz22020-07-03 01:39 624M
[ARC]dewiki-20200701-pages-articles6.xml-p8342169p9842168.bz22020-07-03 01:40 673M
[ARC]dewiki-20200701-pages-articles6.xml-p9842169p11342168.bz22020-07-03 01:46 761M
[ARC]dewiki-20200701-pages-articles6.xml-p11342169p11361661.bz22020-07-03 01:10 8.5M
[ARC]dewiki-20200701-pages-logging.xml.gz2020-07-06 13:30 3.9G
[ARC]dewiki-20200701-pages-logging1.xml.gz2020-07-06 13:15 664M
[ARC]dewiki-20200701-pages-logging2.xml.gz2020-07-06 13:17 716M
[ARC]dewiki-20200701-pages-logging3.xml.gz2020-07-06 13:23 812M
[ARC]dewiki-20200701-pages-logging4.xml.gz2020-07-06 13:05 558M
[ARC]dewiki-20200701-pages-logging5.xml.gz2020-07-06 12:55 463M
[ARC]dewiki-20200701-pages-logging6.xml.gz2020-07-06 13:20 775M
[ARC]dewiki-20200701-pages-meta-current.xml.bz22020-07-04 23:30 7.9G
[ARC]dewiki-20200701-pages-meta-current1.xml-p1p262468.bz22020-07-04 19:57 542M
[ARC]dewiki-20200701-pages-meta-current2.xml-p262469p1095940.bz22020-07-04 20:11 795M
[ARC]dewiki-20200701-pages-meta-current3.xml-p1095941p2595940.bz22020-07-04 20:19 931M
[ARC]dewiki-20200701-pages-meta-current3.xml-p2595941p2920048.bz22020-07-04 19:40 192M
[ARC]dewiki-20200701-pages-meta-current4.xml-p2920049p4420048.bz22020-07-04 20:20 918M
[ARC]dewiki-20200701-pages-meta-current4.xml-p4420049p5466275.bz22020-07-04 20:06 616M
[ARC]dewiki-20200701-pages-meta-current5.xml-p5466276p6966275.bz22020-07-04 21:12 1.0G
[ARC]dewiki-20200701-pages-meta-current5.xml-p6966276p8342168.bz22020-07-04 21:11 966M
[ARC]dewiki-20200701-pages-meta-current6.xml-p8342169p9842168.bz22020-07-04 21:22 1.0G
[ARC]dewiki-20200701-pages-meta-current6.xml-p9842169p11342168.bz22020-07-04 21:22 1.1G
[ARC]dewiki-20200701-pages-meta-current6.xml-p11342169p11361661.bz22020-07-04 20:23 12M
[CMP]dewiki-20200701-pages-meta-history1.xml-p1p1644.7z2020-07-09 03:53 182M
[ARC]dewiki-20200701-pages-meta-history1.xml-p1p1644.bz22020-07-06 19:12 2.2G
[CMP]dewiki-20200701-pages-meta-history1.xml-p1645p3502.7z2020-07-09 03:51 180M
[ARC]dewiki-20200701-pages-meta-history1.xml-p1645p3502.bz22020-07-06 19:09 2.0G
[CMP]dewiki-20200701-pages-meta-history1.xml-p3503p5226.7z2020-07-09 03:47 158M
[ARC]dewiki-20200701-pages-meta-history1.xml-p3503p5226.bz22020-07-06 18:57 1.7G
[CMP]dewiki-20200701-pages-meta-history1.xml-p5227p6320.7z2020-07-09 03:49 164M
[ARC]dewiki-20200701-pages-meta-history1.xml-p5227p6320.bz22020-07-06 19:08 1.8G
[CMP]dewiki-20200701-pages-meta-history1.xml-p6321p9402.7z2020-07-09 03:51 176M
[ARC]dewiki-20200701-pages-meta-history1.xml-p6321p9402.bz22020-07-06 19:05 1.7G
[CMP]dewiki-20200701-pages-meta-history1.xml-p9403p12387.7z2020-07-09 03:50 195M
[ARC]dewiki-20200701-pages-meta-history1.xml-p9403p12387.bz22020-07-06 19:24 2.0G
[CMP]dewiki-20200701-pages-meta-history1.xml-p12388p15360.7z2020-07-09 04:19 172M
[ARC]dewiki-20200701-pages-meta-history1.xml-p12388p15360.bz22020-07-06 21:17 1.5G
[CMP]dewiki-20200701-pages-meta-history1.xml-p15361p18411.7z2020-07-09 04:18 185M
[ARC]dewiki-20200701-pages-meta-history1.xml-p15361p18411.bz22020-07-06 21:19 1.7G
[CMP]dewiki-20200701-pages-meta-history1.xml-p18412p22560.7z2020-07-09 04:17 188M
[ARC]dewiki-20200701-pages-meta-history1.xml-p18412p22560.bz22020-07-06 21:19 1.6G
[CMP]dewiki-20200701-pages-meta-history1.xml-p22561p29967.7z2020-07-09 04:23 235M
[ARC]dewiki-20200701-pages-meta-history1.xml-p22561p29967.bz22020-07-06 21:27 1.7G
[CMP]dewiki-20200701-pages-meta-history1.xml-p29968p35360.7z2020-07-09 04:20 220M
[ARC]dewiki-20200701-pages-meta-history1.xml-p29968p35360.bz22020-07-06 21:27 2.2G
[CMP]dewiki-20200701-pages-meta-history1.xml-p35361p43797.7z2020-07-09 04:23 240M
[ARC]dewiki-20200701-pages-meta-history1.xml-p35361p43797.bz22020-07-06 21:25 1.7G
[CMP]dewiki-20200701-pages-meta-history1.xml-p43798p51751.7z2020-07-09 04:48 229M
[ARC]dewiki-20200701-pages-meta-history1.xml-p43798p51751.bz22020-07-06 23:28 2.0G
[CMP]dewiki-20200701-pages-meta-history1.xml-p51752p60775.7z2020-07-09 04:49 237M
[ARC]dewiki-20200701-pages-meta-history1.xml-p51752p60775.bz22020-07-06 23:25 1.7G
[CMP]dewiki-20200701-pages-meta-history1.xml-p60776p72800.7z2020-07-09 04:47 245M
[ARC]dewiki-20200701-pages-meta-history1.xml-p60776p72800.bz22020-07-06 23:26 1.9G
[CMP]dewiki-20200701-pages-meta-history1.xml-p72801p85076.7z2020-07-09 04:49 254M
[ARC]dewiki-20200701-pages-meta-history1.xml-p72801p85076.bz22020-07-06 23:24 1.6G
[CMP]dewiki-20200701-pages-meta-history1.xml-p85077p97725.7z2020-07-09 04:46 256M
[ARC]dewiki-20200701-pages-meta-history1.xml-p85077p97725.bz22020-07-06 23:21 1.6G
[CMP]dewiki-20200701-pages-meta-history1.xml-p97726p112426.7z2020-07-09 04:46 253M
[ARC]dewiki-20200701-pages-meta-history1.xml-p97726p112426.bz22020-07-06 23:17 1.5G
[CMP]dewiki-20200701-pages-meta-history1.xml-p112427p128540.7z2020-07-09 05:13 257M
[ARC]dewiki-20200701-pages-meta-history1.xml-p112427p128540.bz22020-07-07 01:10 1.6G
[CMP]dewiki-20200701-pages-meta-history1.xml-p128541p143388.7z2020-07-09 05:14 257M
[ARC]dewiki-20200701-pages-meta-history1.xml-p128541p143388.bz22020-07-07 01:12 1.6G
[CMP]dewiki-20200701-pages-meta-history1.xml-p143389p161120.7z2020-07-09 05:10 245M
[ARC]dewiki-20200701-pages-meta-history1.xml-p143389p161120.bz22020-07-07 00:57 1.2G
[CMP]dewiki-20200701-pages-meta-history1.xml-p161121p179221.7z2020-07-09 05:13 262M
[ARC]dewiki-20200701-pages-meta-history1.xml-p161121p179221.bz22020-07-07 01:05 1.6G
[CMP]dewiki-20200701-pages-meta-history1.xml-p179222p199922.7z2020-07-09 05:13 256M
[ARC]dewiki-20200701-pages-meta-history1.xml-p179222p199922.bz22020-07-07 01:00 1.4G
[CMP]dewiki-20200701-pages-meta-history1.xml-p199923p221365.7z2020-07-09 05:14 259M
[ARC]dewiki-20200701-pages-meta-history1.xml-p199923p221365.bz22020-07-07 01:04 1.5G
[CMP]dewiki-20200701-pages-meta-history1.xml-p221366p245994.7z2020-07-09 05:32 234M
[ARC]dewiki-20200701-pages-meta-history1.xml-p221366p245994.bz22020-07-07 02:21 1.0G
[CMP]dewiki-20200701-pages-meta-history1.xml-p245995p262468.7z2020-07-09 05:26 169M
[ARC]dewiki-20200701-pages-meta-history1.xml-p245995p262468.bz22020-07-07 02:05 835M
[CMP]dewiki-20200701-pages-meta-history2.xml-p262469p287677.7z2020-07-09 05:34 260M
[ARC]dewiki-20200701-pages-meta-history2.xml-p262469p287677.bz22020-07-07 02:19 1.5G
[CMP]dewiki-20200701-pages-meta-history2.xml-p287678p313326.7z2020-07-09 05:33 255M
[ARC]dewiki-20200701-pages-meta-history2.xml-p287678p313326.bz22020-07-07 02:36 1.3G
[CMP]dewiki-20200701-pages-meta-history2.xml-p313327p340715.7z2020-07-09 05:32 249M
[ARC]dewiki-20200701-pages-meta-history2.xml-p313327p340715.bz22020-07-07 02:27 1.2G
[CMP]dewiki-20200701-pages-meta-history2.xml-p340716p371207.7z2020-07-09 05:30 245M
[ARC]dewiki-20200701-pages-meta-history2.xml-p340716p371207.bz22020-07-07 02:22 1.1G
[CMP]dewiki-20200701-pages-meta-history2.xml-p371208p403097.7z2020-07-09 05:51 251M
[ARC]dewiki-20200701-pages-meta-history2.xml-p371208p403097.bz22020-07-07 03:52 1.2G
[CMP]dewiki-20200701-pages-meta-history2.xml-p403098p439322.7z2020-07-09 05:50 248M
[ARC]dewiki-20200701-pages-meta-history2.xml-p403098p439322.bz22020-07-07 03:47 1.1G
[CMP]dewiki-20200701-pages-meta-history2.xml-p439323p468937.7z2020-07-09 05:55 265M
[ARC]dewiki-20200701-pages-meta-history2.xml-p439323p468937.bz22020-07-07 04:07 1.6G
[CMP]dewiki-20200701-pages-meta-history2.xml-p468938p499400.7z2020-07-09 05:52 237M
[ARC]dewiki-20200701-pages-meta-history2.xml-p468938p499400.bz22020-07-07 03:56 1.2G
[CMP]dewiki-20200701-pages-meta-history2.xml-p499401p539462.7z2020-07-09 05:52 239M
[ARC]dewiki-20200701-pages-meta-history2.xml-p499401p539462.bz22020-07-07 03:45 1.0G
[CMP]dewiki-20200701-pages-meta-history2.xml-p539463p581885.7z2020-07-09 05:53 242M
[ARC]dewiki-20200701-pages-meta-history2.xml-p539463p581885.bz22020-07-07 03:43 1.0G
[CMP]dewiki-20200701-pages-meta-history2.xml-p581886p621133.7z2020-07-09 06:18 293M
[ARC]dewiki-20200701-pages-meta-history2.xml-p581886p621133.bz22020-07-07 05:38 2.0G
[CMP]dewiki-20200701-pages-meta-history2.xml-p621134p666314.7z2020-07-09 06:13 254M
[ARC]dewiki-20200701-pages-meta-history2.xml-p621134p666314.bz22020-07-07 05:20 1.2G
[CMP]dewiki-20200701-pages-meta-history2.xml-p666315p700139.7z2020-07-09 06:19 277M
[ARC]dewiki-20200701-pages-meta-history2.xml-p666315p700139.bz22020-07-07 05:43 2.2G
[CMP]dewiki-20200701-pages-meta-history2.xml-p700140p738575.7z2020-07-09 06:16 259M
[ARC]dewiki-20200701-pages-meta-history2.xml-p700140p738575.bz22020-07-07 05:19 1.6G
[CMP]dewiki-20200701-pages-meta-history2.xml-p738576p783302.7z2020-07-09 06:13 257M
[ARC]dewiki-20200701-pages-meta-history2.xml-p738576p783302.bz22020-07-07 05:08 1.4G
[CMP]dewiki-20200701-pages-meta-history2.xml-p783303p826430.7z2020-07-09 06:14 272M
[ARC]dewiki-20200701-pages-meta-history2.xml-p783303p826430.bz22020-07-07 05:11 1.5G
[CMP]dewiki-20200701-pages-meta-history2.xml-p826431p869423.7z2020-07-09 06:39 292M
[ARC]dewiki-20200701-pages-meta-history2.xml-p826431p869423.bz22020-07-07 07:01 2.0G
[CMP]dewiki-20200701-pages-meta-history2.xml-p869424p919966.7z2020-07-09 06:39 315M
[ARC]dewiki-20200701-pages-meta-history2.xml-p869424p919966.bz22020-07-07 07:07 2.3G
[CMP]dewiki-20200701-pages-meta-history2.xml-p919967p973180.7z2020-07-09 06:33 253M
[ARC]dewiki-20200701-pages-meta-history2.xml-p919967p973180.bz22020-07-07 06:35 1.1G
[CMP]dewiki-20200701-pages-meta-history2.xml-p973181p1022031.7z2020-07-09 06:39 288M
[ARC]dewiki-20200701-pages-meta-history2.xml-p973181p1022031.bz22020-07-07 07:03 1.9G
[CMP]dewiki-20200701-pages-meta-history2.xml-p1022032p1079412.7z2020-07-09 06:37 289M
[ARC]dewiki-20200701-pages-meta-history2.xml-p1022032p1079412.bz22020-07-07 06:57 1.8G
[CMP]dewiki-20200701-pages-meta-history2.xml-p1079413p1095940.7z2020-07-09 06:23 67M
[ARC]dewiki-20200701-pages-meta-history2.xml-p1079413p1095940.bz22020-07-07 05:57 302M
[CMP]dewiki-20200701-pages-meta-history3.xml-p1095941p1155652.7z2020-07-09 07:02 291M
[ARC]dewiki-20200701-pages-meta-history3.xml-p1095941p1155652.bz22020-07-07 08:24 1.8G
[CMP]dewiki-20200701-pages-meta-history3.xml-p1155653p1217898.7z2020-07-09 07:01 297M
[ARC]dewiki-20200701-pages-meta-history3.xml-p1155653p1217898.bz22020-07-07 08:43 2.0G
[CMP]dewiki-20200701-pages-meta-history3.xml-p1217899p1277065.7z2020-07-09 07:01 292M
[ARC]dewiki-20200701-pages-meta-history3.xml-p1217899p1277065.bz22020-07-07 08:38 1.8G
[CMP]dewiki-20200701-pages-meta-history3.xml-p1277066p1341772.7z2020-07-09 07:00 272M
[ARC]dewiki-20200701-pages-meta-history3.xml-p1277066p1341772.bz22020-07-07 08:24 1.4G
[CMP]dewiki-20200701-pages-meta-history3.xml-p1341773p1405364.7z2020-07-09 07:02 360M
[ARC]dewiki-20200701-pages-meta-history3.xml-p1341773p1405364.bz22020-07-07 08:33 2.0G
[CMP]dewiki-20200701-pages-meta-history3.xml-p1405365p1475749.7z2020-07-09 07:03 303M
[ARC]dewiki-20200701-pages-meta-history3.xml-p1405365p1475749.bz22020-07-07 08:39 1.9G
[CMP]dewiki-20200701-pages-meta-history3.xml-p1475750p1548492.7z2020-07-09 07:25 340M
[ARC]dewiki-20200701-pages-meta-history3.xml-p1475750p1548492.bz22020-07-07 10:36 2.1G
[CMP]dewiki-20200701-pages-meta-history3.xml-p1548493p1624266.7z2020-07-09 07:23 285M
[ARC]dewiki-20200701-pages-meta-history3.xml-p1548493p1624266.bz22020-07-07 10:19 1.5G
[CMP]dewiki-20200701-pages-meta-history3.xml-p1624267p1692929.7z2020-07-09 07:27 315M
[ARC]dewiki-20200701-pages-meta-history3.xml-p1624267p1692929.bz22020-07-07 10:41 2.2G
[CMP]dewiki-20200701-pages-meta-history3.xml-p1692930p1764358.7z2020-07-09 07:23 328M
[ARC]dewiki-20200701-pages-meta-history3.xml-p1692930p1764358.bz22020-07-07 10:29 1.9G
[CMP]dewiki-20200701-pages-meta-history3.xml-p1764359p1845726.7z2020-07-09 07:24 306M
[ARC]dewiki-20200701-pages-meta-history3.xml-p1764359p1845726.bz22020-07-07 10:33 1.9G
[CMP]dewiki-20200701-pages-meta-history3.xml-p1845727p1927614.7z2020-07-09 07:25 360M
[ARC]dewiki-20200701-pages-meta-history3.xml-p1845727p1927614.bz22020-07-07 10:39 2.3G
[CMP]dewiki-20200701-pages-meta-history3.xml-p1927615p2033979.7z2020-07-09 07:45 289M
[ARC]dewiki-20200701-pages-meta-history3.xml-p1927615p2033979.bz22020-07-07 12:00 1.6G
[CMP]dewiki-20200701-pages-meta-history3.xml-p2033980p2133625.7z2020-07-09 07:50 299M
[ARC]dewiki-20200701-pages-meta-history3.xml-p2033980p2133625.bz22020-07-07 12:06 1.8G
[CMP]dewiki-20200701-pages-meta-history3.xml-p2133626p2236670.7z2020-07-09 07:47 308M
[ARC]dewiki-20200701-pages-meta-history3.xml-p2133626p2236670.bz22020-07-07 12:07 1.8G
[CMP]dewiki-20200701-pages-meta-history3.xml-p2236671p2343325.7z2020-07-09 07:51 318M
[ARC]dewiki-20200701-pages-meta-history3.xml-p2236671p2343325.bz22020-07-07 12:12 2.0G
[CMP]dewiki-20200701-pages-meta-history3.xml-p2343326p2464919.7z2020-07-09 07:47 309M
[ARC]dewiki-20200701-pages-meta-history3.xml-p2343326p2464919.bz22020-07-07 12:07 1.8G
[CMP]dewiki-20200701-pages-meta-history3.xml-p2464920p2587577.7z2020-07-09 07:51 336M
[ARC]dewiki-20200701-pages-meta-history3.xml-p2464920p2587577.bz22020-07-07 12:19 2.4G
[CMP]dewiki-20200701-pages-meta-history3.xml-p2587578p2671548.7z2020-07-09 08:16 295M
[ARC]dewiki-20200701-pages-meta-history3.xml-p2587578p2671548.bz22020-07-07 14:08 2.4G
[CMP]dewiki-20200701-pages-meta-history3.xml-p2671549p2770759.7z2020-07-09 08:16 365M
[ARC]dewiki-20200701-pages-meta-history3.xml-p2671549p2770759.bz22020-07-07 14:11 3.0G
[CMP]dewiki-20200701-pages-meta-history3.xml-p2770760p2865786.7z2020-07-09 08:14 315M
[ARC]dewiki-20200701-pages-meta-history3.xml-p2770760p2865786.bz22020-07-07 13:57 2.0G
[CMP]dewiki-20200701-pages-meta-history3.xml-p2865787p2920048.7z2020-07-09 08:03 167M
[ARC]dewiki-20200701-pages-meta-history3.xml-p2865787p2920048.bz22020-07-07 13:19 1.1G
[CMP]dewiki-20200701-pages-meta-history4.xml-p2920049p3033857.7z2020-07-09 08:13 329M
[ARC]dewiki-20200701-pages-meta-history4.xml-p2920049p3033857.bz22020-07-07 13:37 2.0G
[CMP]dewiki-20200701-pages-meta-history4.xml-p3033858p3094918.7z2020-07-09 08:16 280M
[ARC]dewiki-20200701-pages-meta-history4.xml-p3033858p3094918.bz22020-07-07 14:09 3.0G
[CMP]dewiki-20200701-pages-meta-history4.xml-p3094919p3200926.7z2020-07-09 08:38 323M
[ARC]dewiki-20200701-pages-meta-history4.xml-p3094919p3200926.bz22020-07-07 15:43 1.8G
[CMP]dewiki-20200701-pages-meta-history4.xml-p3200927p3333572.7z2020-07-09 08:42 326M
[ARC]dewiki-20200701-pages-meta-history4.xml-p3200927p3333572.bz22020-07-07 15:46 1.9G
[CMP]dewiki-20200701-pages-meta-history4.xml-p3333573p3441894.7z2020-07-09 08:41 339M
[ARC]dewiki-20200701-pages-meta-history4.xml-p3333573p3441894.bz22020-07-07 15:51 2.1G
[CMP]dewiki-20200701-pages-meta-history4.xml-p3441895p3557452.7z2020-07-09 08:42 360M
[ARC]dewiki-20200701-pages-meta-history4.xml-p3441895p3557452.bz22020-07-07 15:46 2.0G
[CMP]dewiki-20200701-pages-meta-history4.xml-p3557453p3672250.7z2020-07-09 08:39 324M
[ARC]dewiki-20200701-pages-meta-history4.xml-p3557453p3672250.bz22020-07-07 15:34 1.5G
[CMP]dewiki-20200701-pages-meta-history4.xml-p3672251p3778275.7z2020-07-09 08:42 357M
[ARC]dewiki-20200701-pages-meta-history4.xml-p3672251p3778275.bz22020-07-07 15:46 2.2G
[CMP]dewiki-20200701-pages-meta-history4.xml-p3778276p3886692.7z2020-07-09 09:07 353M
[ARC]dewiki-20200701-pages-meta-history4.xml-p3778276p3886692.bz22020-07-07 17:34 2.3G
[CMP]dewiki-20200701-pages-meta-history4.xml-p3886693p4017456.7z2020-07-09 09:03 315M
[ARC]dewiki-20200701-pages-meta-history4.xml-p3886693p4017456.bz22020-07-07 17:14 1.7G
[CMP]dewiki-20200701-pages-meta-history4.xml-p4017457p4129518.7z2020-07-09 09:08 347M
[ARC]dewiki-20200701-pages-meta-history4.xml-p4017457p4129518.bz22020-07-07 17:30 2.2G
[CMP]dewiki-20200701-pages-meta-history4.xml-p4129519p4251086.7z2020-07-09 09:08 414M
[ARC]dewiki-20200701-pages-meta-history4.xml-p4129519p4251086.bz22020-07-07 17:35 2.6G
[CMP]dewiki-20200701-pages-meta-history4.xml-p4251087p4329649.7z2020-07-09 09:07 286M
[ARC]dewiki-20200701-pages-meta-history4.xml-p4251087p4329649.bz22020-07-07 17:34 2.5G
[CMP]dewiki-20200701-pages-meta-history4.xml-p4329650p4369721.7z2020-07-09 09:08 305M
[ARC]dewiki-20200701-pages-meta-history4.xml-p4329650p4369721.bz22020-07-07 17:39 3.6G
[CMP]dewiki-20200701-pages-meta-history4.xml-p4369722p4469644.7z2020-07-09 09:31 321M
[ARC]dewiki-20200701-pages-meta-history4.xml-p4369722p4469644.bz22020-07-07 19:11 1.9G
[CMP]dewiki-20200701-pages-meta-history4.xml-p4469645p4560198.7z2020-07-09 09:32 346M
[ARC]dewiki-20200701-pages-meta-history4.xml-p4469645p4560198.bz22020-07-07 19:10 2.5G
[CMP]dewiki-20200701-pages-meta-history4.xml-p4560199p4686820.7z2020-07-09 09:33 382M
[ARC]dewiki-20200701-pages-meta-history4.xml-p4560199p4686820.bz22020-07-07 19:06 2.6G
[CMP]dewiki-20200701-pages-meta-history4.xml-p4686821p4795333.7z2020-07-09 09:32 313M
[ARC]dewiki-20200701-pages-meta-history4.xml-p4686821p4795333.bz22020-07-07 19:01 2.6G
[CMP]dewiki-20200701-pages-meta-history4.xml-p4795334p4904964.7z2020-07-09 09:33 359M
[ARC]dewiki-20200701-pages-meta-history4.xml-p4795334p4904964.bz22020-07-07 19:10 3.2G
[CMP]dewiki-20200701-pages-meta-history4.xml-p4904965p5001983.7z2020-07-09 09:29 296M
[ARC]dewiki-20200701-pages-meta-history4.xml-p4904965p5001983.bz22020-07-07 18:56 2.2G
[CMP]dewiki-20200701-pages-meta-history4.xml-p5001984p5082629.7z2020-07-09 09:58 303M
[ARC]dewiki-20200701-pages-meta-history4.xml-p5001984p5082629.bz22020-07-07 20:58 2.8G
[CMP]dewiki-20200701-pages-meta-history4.xml-p5082630p5221048.7z2020-07-09 09:59 354M
[ARC]dewiki-20200701-pages-meta-history4.xml-p5082630p5221048.bz22020-07-07 21:00 2.5G
[CMP]dewiki-20200701-pages-meta-history4.xml-p5221049p5341946.7z2020-07-09 09:58 339M
[ARC]dewiki-20200701-pages-meta-history4.xml-p5221049p5341946.bz22020-07-07 20:59 2.3G
[CMP]dewiki-20200701-pages-meta-history4.xml-p5341947p5460592.7z2020-07-09 09:59 355M
[ARC]dewiki-20200701-pages-meta-history4.xml-p5341947p5460592.bz22020-07-07 20:45 2.7G
[CMP]dewiki-20200701-pages-meta-history4.xml-p5460593p5466275.7z2020-07-09 09:38 40M
[ARC]dewiki-20200701-pages-meta-history4.xml-p5460593p5466275.bz22020-07-07 19:26 599M
[CMP]dewiki-20200701-pages-meta-history5.xml-p5466276p5571534.7z2020-07-09 09:59 382M
[ARC]dewiki-20200701-pages-meta-history5.xml-p5466276p5571534.bz22020-07-07 20:46 2.9G
[CMP]dewiki-20200701-pages-meta-history5.xml-p5571535p5699572.7z2020-07-09 10:25 358M
[ARC]dewiki-20200701-pages-meta-history5.xml-p5571535p5699572.bz22020-07-07 22:33 2.4G
[CMP]dewiki-20200701-pages-meta-history5.xml-p5699573p5842124.7z2020-07-09 10:23 372M
[ARC]dewiki-20200701-pages-meta-history5.xml-p5699573p5842124.bz22020-07-07 22:29 2.5G
[CMP]dewiki-20200701-pages-meta-history5.xml-p5842125p5939233.7z2020-07-09 10:26 316M
[ARC]dewiki-20200701-pages-meta-history5.xml-p5842125p5939233.bz22020-07-07 22:48 2.4G
[CMP]dewiki-20200701-pages-meta-history5.xml-p5939234p6066468.7z2020-07-09 10:25 379M
[ARC]dewiki-20200701-pages-meta-history5.xml-p5939234p6066468.bz22020-07-07 22:53 2.9G
[CMP]dewiki-20200701-pages-meta-history5.xml-p6066469p6166928.7z2020-07-09 10:25 336M
[ARC]dewiki-20200701-pages-meta-history5.xml-p6066469p6166928.bz22020-07-07 22:53 2.7G
[CMP]dewiki-20200701-pages-meta-history5.xml-p6166929p6284045.7z2020-07-09 10:24 338M
[ARC]dewiki-20200701-pages-meta-history5.xml-p6166929p6284045.bz22020-07-07 22:44 2.4G
[CMP]dewiki-20200701-pages-meta-history5.xml-p6284046p6354781.7z2020-07-09 10:46 252M
[ARC]dewiki-20200701-pages-meta-history5.xml-p6284046p6354781.bz22020-07-08 00:24 2.0G
[CMP]dewiki-20200701-pages-meta-history5.xml-p6354782p6458934.7z2020-07-09 10:51 322M
[ARC]dewiki-20200701-pages-meta-history5.xml-p6354782p6458934.bz22020-07-08 00:34 2.5G
[CMP]dewiki-20200701-pages-meta-history5.xml-p6458935p6529885.7z2020-07-09 10:48 261M
[ARC]dewiki-20200701-pages-meta-history5.xml-p6458935p6529885.bz22020-07-08 00:26 2.2G
[CMP]dewiki-20200701-pages-meta-history5.xml-p6529886p6557837.7z2020-07-09 10:53 256M
[ARC]dewiki-20200701-pages-meta-history5.xml-p6529886p6557837.bz22020-07-08 00:36 4.1G
[CMP]dewiki-20200701-pages-meta-history5.xml-p6557838p6611238.7z2020-07-09 10:41 188M
[ARC]dewiki-20200701-pages-meta-history5.xml-p6557838p6611238.bz22020-07-08 00:04 1.5G
[CMP]dewiki-20200701-pages-meta-history5.xml-p6611239p6644957.7z2020-07-09 10:52 231M
[ARC]dewiki-20200701-pages-meta-history5.xml-p6611239p6644957.bz22020-07-08 00:38 3.2G
[CMP]dewiki-20200701-pages-meta-history5.xml-p6644958p6678807.7z2020-07-09 11:09 152M
[ARC]dewiki-20200701-pages-meta-history5.xml-p6644958p6678807.bz22020-07-08 01:30 1.4G
[CMP]dewiki-20200701-pages-meta-history5.xml-p6678808p6726819.7z2020-07-09 11:18 331M
[ARC]dewiki-20200701-pages-meta-history5.xml-p6678808p6726819.bz22020-07-08 02:20 4.3G
[CMP]dewiki-20200701-pages-meta-history5.xml-p6726820p6790940.7z2020-07-09 11:19 292M
[ARC]dewiki-20200701-pages-meta-history5.xml-p6726820p6790940.bz22020-07-08 02:09 3.3G
[CMP]dewiki-20200701-pages-meta-history5.xml-p6790941p6904308.7z2020-07-09 11:17 348M
[ARC]dewiki-20200701-pages-meta-history5.xml-p6790941p6904308.bz22020-07-08 02:03 2.4G
[CMP]dewiki-20200701-pages-meta-history5.xml-p6904309p6972095.7z2020-07-09 11:07 181M
[ARC]dewiki-20200701-pages-meta-history5.xml-p6904309p6972095.bz22020-07-08 01:23 1.0G
[CMP]dewiki-20200701-pages-meta-history5.xml-p6972096p7030664.7z2020-07-09 11:18 271M
[ARC]dewiki-20200701-pages-meta-history5.xml-p6972096p7030664.bz22020-07-08 02:00 2.3G
[CMP]dewiki-20200701-pages-meta-history5.xml-p7030665p7073089.7z2020-07-09 11:25 102M
[ARC]dewiki-20200701-pages-meta-history5.xml-p7030665p7073089.bz22020-07-08 02:39 431M
[CMP]dewiki-20200701-pages-meta-history5.xml-p7073090p7075995.7z2020-07-09 11:20 7.3M
[ARC]dewiki-20200701-pages-meta-history5.xml-p7073090p7075995.bz22020-07-08 02:24 29M
[CMP]dewiki-20200701-pages-meta-history5.xml-p7075996p7076352.7z2020-07-09 11:20 2.0M
[ARC]dewiki-20200701-pages-meta-history5.xml-p7075996p7076352.bz22020-07-08 02:23 13M
[CMP]dewiki-20200701-pages-meta-history5.xml-p7076353p7076707.7z2020-07-09 12:02 476M
[ARC]dewiki-20200701-pages-meta-history5.xml-p7076353p7076707.bz22020-07-08 04:46 9.5G
[CMP]dewiki-20200701-pages-meta-history5.xml-p7076708p7171592.7z2020-07-09 11:40 319M
[ARC]dewiki-20200701-pages-meta-history5.xml-p7076708p7171592.bz22020-07-08 03:20 1.5G
[CMP]dewiki-20200701-pages-meta-history5.xml-p7171593p7388583.7z2020-07-09 11:37 345M
[ARC]dewiki-20200701-pages-meta-history5.xml-p7171593p7388583.bz22020-07-08 03:25 1.6G
[CMP]dewiki-20200701-pages-meta-history5.xml-p7388584p7530812.7z2020-07-09 12:23 386M
[ARC]dewiki-20200701-pages-meta-history5.xml-p7388584p7530812.bz22020-07-08 05:57 1.8G
[CMP]dewiki-20200701-pages-meta-history5.xml-p7530813p7658659.7z2020-07-09 12:27 357M
[ARC]dewiki-20200701-pages-meta-history5.xml-p7530813p7658659.bz22020-07-08 06:08 2.2G
[CMP]dewiki-20200701-pages-meta-history5.xml-p7658660p7770117.7z2020-07-09 12:27 363M
[ARC]dewiki-20200701-pages-meta-history5.xml-p7658660p7770117.bz22020-07-08 06:15 2.8G
[CMP]dewiki-20200701-pages-meta-history5.xml-p7770118p7913879.7z2020-07-09 12:25 362M
[ARC]dewiki-20200701-pages-meta-history5.xml-p7770118p7913879.bz22020-07-08 06:06 1.9G
[CMP]dewiki-20200701-pages-meta-history5.xml-p7913880p8039743.7z2020-07-09 12:29 389M
[ARC]dewiki-20200701-pages-meta-history5.xml-p7913880p8039743.bz22020-07-08 06:13 2.7G
[CMP]dewiki-20200701-pages-meta-history5.xml-p8039744p8153806.7z2020-07-09 12:27 369M
[ARC]dewiki-20200701-pages-meta-history5.xml-p8039744p8153806.bz22020-07-08 06:00 2.6G
[CMP]dewiki-20200701-pages-meta-history5.xml-p8153807p8303172.7z2020-07-09 12:53 399M
[ARC]dewiki-20200701-pages-meta-history5.xml-p8153807p8303172.bz22020-07-08 07:35 2.1G
[CMP]dewiki-20200701-pages-meta-history5.xml-p8303173p8342168.7z2020-07-09 12:37 119M
[ARC]dewiki-20200701-pages-meta-history5.xml-p8303173p8342168.bz22020-07-08 06:41 852M
[CMP]dewiki-20200701-pages-meta-history6.xml-p8342169p8476940.7z2020-07-09 12:54 409M
[ARC]dewiki-20200701-pages-meta-history6.xml-p8342169p8476940.bz22020-07-08 07:44 2.4G
[CMP]dewiki-20200701-pages-meta-history6.xml-p8476941p8617794.7z2020-07-09 12:52 377M
[ARC]dewiki-20200701-pages-meta-history6.xml-p8476941p8617794.bz22020-07-08 07:29 1.8G
[CMP]dewiki-20200701-pages-meta-history6.xml-p8617795p8854840.7z2020-07-09 12:48 299M
[ARC]dewiki-20200701-pages-meta-history6.xml-p8617795p8854840.bz22020-07-08 07:28 1.3G
[CMP]dewiki-20200701-pages-meta-history6.xml-p8854841p8967497.7z2020-07-09 12:53 384M
[ARC]dewiki-20200701-pages-meta-history6.xml-p8854841p8967497.bz22020-07-08 07:50 2.4G
[CMP]dewiki-20200701-pages-meta-history6.xml-p8967498p9064904.7z2020-07-09 13:16 324M
[ARC]dewiki-20200701-pages-meta-history6.xml-p8967498p9064904.bz22020-07-08 09:23 2.2G
[CMP]dewiki-20200701-pages-meta-history6.xml-p9064905p9082209.7z2020-07-09 12:59 64M
[ARC]dewiki-20200701-pages-meta-history6.xml-p9064905p9082209.bz22020-07-08 08:12 600M
[CMP]dewiki-20200701-pages-meta-history6.xml-p9082210p9082339.7z2020-07-09 12:54 283K
[ARC]dewiki-20200701-pages-meta-history6.xml-p9082210p9082339.bz22020-07-08 07:55 1.5M
[CMP]dewiki-20200701-pages-meta-history6.xml-p9082340p9082591.7z2020-07-09 13:36 433M
[ARC]dewiki-20200701-pages-meta-history6.xml-p9082340p9082591.bz22020-07-08 10:43 8.6G
[CMP]dewiki-20200701-pages-meta-history6.xml-p9082592p9235861.7z2020-07-09 13:15 310M
[ARC]dewiki-20200701-pages-meta-history6.xml-p9082592p9235861.bz22020-07-08 09:36 2.5G
[CMP]dewiki-20200701-pages-meta-history6.xml-p9235862p9430702.7z2020-07-09 13:16 369M
[ARC]dewiki-20200701-pages-meta-history6.xml-p9235862p9430702.bz22020-07-08 09:23 2.0G
[CMP]dewiki-20200701-pages-meta-history6.xml-p9430703p9574477.7z2020-07-09 14:00 422M
[ARC]dewiki-20200701-pages-meta-history6.xml-p9430703p9574477.bz22020-07-08 12:56 2.7G
[CMP]dewiki-20200701-pages-meta-history6.xml-p9574478p9651705.7z2020-07-09 13:58 381M
[ARC]dewiki-20200701-pages-meta-history6.xml-p9574478p9651705.bz22020-07-08 12:46 2.7G
[CMP]dewiki-20200701-pages-meta-history6.xml-p9651706p9740496.7z2020-07-09 13:59 355M
[ARC]dewiki-20200701-pages-meta-history6.xml-p9651706p9740496.bz22020-07-08 12:53 2.9G
[CMP]dewiki-20200701-pages-meta-history6.xml-p9740497p9759809.7z2020-07-09 13:55 281M
[ARC]dewiki-20200701-pages-meta-history6.xml-p9740497p9759809.bz22020-07-08 12:21 2.3G
[CMP]dewiki-20200701-pages-meta-history6.xml-p9759810p9908531.7z2020-07-09 13:58 435M
[ARC]dewiki-20200701-pages-meta-history6.xml-p9759810p9908531.bz22020-07-08 12:34 2.3G
[CMP]dewiki-20200701-pages-meta-history6.xml-p9908532p10007090.7z2020-07-09 13:59 443M
[ARC]dewiki-20200701-pages-meta-history6.xml-p9908532p10007090.bz22020-07-08 12:39 2.5G
[CMP]dewiki-20200701-pages-meta-history6.xml-p10007091p10157366.7z2020-07-09 14:28 408M
[ARC]dewiki-20200701-pages-meta-history6.xml-p10007091p10157366.bz22020-07-08 15:11 2.0G
[CMP]dewiki-20200701-pages-meta-history6.xml-p10157367p10261596.7z2020-07-09 14:30 428M
[ARC]dewiki-20200701-pages-meta-history6.xml-p10157367p10261596.bz22020-07-08 15:16 2.7G
[CMP]dewiki-20200701-pages-meta-history6.xml-p10261597p10453597.7z2020-07-09 14:26 431M
[ARC]dewiki-20200701-pages-meta-history6.xml-p10261597p10453597.bz22020-07-08 15:16 2.4G
[CMP]dewiki-20200701-pages-meta-history6.xml-p10453598p10684216.7z2020-07-09 14:24 440M
[ARC]dewiki-20200701-pages-meta-history6.xml-p10453598p10684216.bz22020-07-08 15:01 2.0G
[CMP]dewiki-20200701-pages-meta-history6.xml-p10684217p10907502.7z2020-07-09 14:24 454M
[ARC]dewiki-20200701-pages-meta-history6.xml-p10684217p10907502.bz22020-07-08 15:07 2.2G
[CMP]dewiki-20200701-pages-meta-history6.xml-p10907503p11154155.7z2020-07-09 14:28 450M
[ARC]dewiki-20200701-pages-meta-history6.xml-p10907503p11154155.bz22020-07-08 15:10 2.3G
[CMP]dewiki-20200701-pages-meta-history6.xml-p11154156p11256311.7z2020-07-09 14:51 318M
[ARC]dewiki-20200701-pages-meta-history6.xml-p11154156p11256311.bz22020-07-08 17:18 3.4G
[CMP]dewiki-20200701-pages-meta-history6.xml-p11256312p11361661.7z2020-07-09 14:36 157M
[ARC]dewiki-20200701-pages-meta-history6.xml-p11256312p11361661.bz22020-07-08 16:36 633M
[ARC]dewiki-20200701-protected_titles.sql.gz2020-07-02 15:02 3.2M
[ARC]dewiki-20200701-redirect.sql.gz2020-07-02 17:11 21M
[TXT]dewiki-20200701-runsettings.txt2020-07-02 03:57 84
[   ]dewiki-20200701-sha1sums.json2020-07-09 15:17 43K
[TXT]dewiki-20200701-sha1sums.txt2020-07-09 15:17 41K
[ARC]dewiki-20200701-site_stats.sql.gz2020-07-02 16:40 826
[ARC]dewiki-20200701-siteinfo-namespaces.json.gz2020-07-06 05:39 5.9K
[ARC]dewiki-20200701-sites.sql.gz2020-07-02 15:06 21K
[ARC]dewiki-20200701-stub-articles.xml.gz2020-07-02 13:26 476M
[ARC]dewiki-20200701-stub-articles1.xml.gz2020-07-02 11:03 14M
[ARC]dewiki-20200701-stub-articles2.xml.gz2020-07-02 11:12 37M
[ARC]dewiki-20200701-stub-articles3.xml.gz2020-07-02 11:39 65M
[ARC]dewiki-20200701-stub-articles4.xml.gz2020-07-02 11:54 90M
[ARC]dewiki-20200701-stub-articles5.xml.gz2020-07-02 12:19 129M
[ARC]dewiki-20200701-stub-articles6.xml.gz2020-07-02 10:42 140M
[ARC]dewiki-20200701-stub-meta-current.xml.gz2020-07-02 13:25 686M
[ARC]dewiki-20200701-stub-meta-current1.xml.gz2020-07-02 11:03 18M
[ARC]dewiki-20200701-stub-meta-current2.xml.gz2020-07-02 11:12 49M
[ARC]dewiki-20200701-stub-meta-current3.xml.gz2020-07-02 11:39 94M
[ARC]dewiki-20200701-stub-meta-current4.xml.gz2020-07-02 11:54 133M
[ARC]dewiki-20200701-stub-meta-current5.xml.gz2020-07-02 12:19 183M
[ARC]dewiki-20200701-stub-meta-current6.xml.gz2020-07-02 10:42 209M
[ARC]dewiki-20200701-stub-meta-history.xml.gz2020-07-02 13:24 13G
[ARC]dewiki-20200701-stub-meta-history1.xml.gz2020-07-02 11:03 2.2G
[ARC]dewiki-20200701-stub-meta-history2.xml.gz2020-07-02 11:12 2.3G
[ARC]dewiki-20200701-stub-meta-history3.xml.gz2020-07-02 11:39 2.3G
[ARC]dewiki-20200701-stub-meta-history4.xml.gz2020-07-02 11:54 2.3G
[ARC]dewiki-20200701-stub-meta-history5.xml.gz2020-07-02 12:19 2.3G
[ARC]dewiki-20200701-stub-meta-history6.xml.gz2020-07-02 10:42 1.6G
[ARC]dewiki-20200701-templatelinks.sql.gz2020-07-02 14:14 203M
[ARC]dewiki-20200701-user_former_groups.sql.gz2020-07-02 15:20 3.9K
[ARC]dewiki-20200701-user_groups.sql.gz2020-07-02 15:03 186K
[ARC]dewiki-20200701-wbc_entity_usage.sql.gz2020-07-02 16:43 127M
[   ]dumpruninfo.json2020-07-09 15:20 3.6K
[TXT]dumpruninfo.txt2020-07-09 15:19 3.1K
[   ]dumpspecialfiles.json2020-07-09 15:17 1.3K
[   ]dumpstatus.json2020-07-09 15:17 111K
[HTM]index.html2020-07-09 15:17 86K
[TXT]md5sums-dewiki-20200701-abstract.xml.gz.txt2020-07-06 12:14 66
[TXT]md5sums-dewiki-20200701-abstract1.xml.gz.txt2020-07-06 12:13 67
[TXT]md5sums-dewiki-20200701-abstract2.xml.gz.txt2020-07-06 12:13 67
[TXT]md5sums-dewiki-20200701-abstract3.xml.gz.txt2020-07-06 12:13 67
[TXT]md5sums-dewiki-20200701-abstract4.xml.gz.txt2020-07-06 12:13 67
[TXT]md5sums-dewiki-20200701-abstract5.xml.gz.txt2020-07-06 12:13 67
[TXT]md5sums-dewiki-20200701-abstract6.xml.gz.txt2020-07-06 12:13 67
[TXT]md5sums-dewiki-20200701-all-titles-in-ns0.gz.txt2020-07-06 05:40 71
[TXT]md5sums-dewiki-20200701-all-titles.gz.txt2020-07-06 05:41 64
[TXT]md5sums-dewiki-20200701-babel.sql.gz.txt2020-07-02 17:01 63
[TXT]md5sums-dewiki-20200701-category.sql.gz.txt2020-07-02 14:05 66
[TXT]md5sums-dewiki-20200701-categorylinks.sql.gz.txt2020-07-02 15:12 71
[TXT]md5sums-dewiki-20200701-change_tag.sql.gz.txt2020-07-02 16:47 68
[TXT]md5sums-dewiki-20200701-change_tag_def.sql.gz.txt2020-07-02 14:04 72
[TXT]md5sums-dewiki-20200701-externallinks.sql.gz.txt2020-07-02 17:07 71
[TXT]md5sums-dewiki-20200701-flaggedimages.sql.gz.txt2020-07-02 16:33 71
[TXT]md5sums-dewiki-20200701-flaggedpage_config.sql.gz.txt2020-07-02 16:43 76
[TXT]md5sums-dewiki-20200701-flaggedpage_pending.sql.gz.txt2020-07-02 14:07 77
[TXT]md5sums-dewiki-20200701-flaggedpages.sql.gz.txt2020-07-02 15:08 70
[TXT]md5sums-dewiki-20200701-flaggedrevs.sql.gz.txt2020-07-02 16:59 69
[TXT]md5sums-dewiki-20200701-flaggedrevs_promote.sql.gz.txt2020-07-02 17:09 77
[TXT]md5sums-dewiki-20200701-flaggedrevs_statistics.sql.gz.txt2020-07-02 14:11 80
[TXT]md5sums-dewiki-20200701-flaggedrevs_tracking.sql.gz.txt2020-07-02 17:13 78
[TXT]md5sums-dewiki-20200701-flaggedtemplates.sql.gz.txt2020-07-02 14:56 74
[TXT]md5sums-dewiki-20200701-geo_tags.sql.gz.txt2020-07-02 14:09 66
[TXT]md5sums-dewiki-20200701-image.sql.gz.txt2020-07-02 15:05 63
[TXT]md5sums-dewiki-20200701-imagelinks.sql.gz.txt2020-07-02 16:50 68
[TXT]md5sums-dewiki-20200701-iwlinks.sql.gz.txt2020-07-02 17:00 65
[TXT]md5sums-dewiki-20200701-langlinks.sql.gz.txt2020-07-02 16:41 67
[TXT]md5sums-dewiki-20200701-page.sql.gz.txt2020-07-02 16:45 62
[TXT]md5sums-dewiki-20200701-page_props.sql.gz.txt2020-07-02 16:52 68
[TXT]md5sums-dewiki-20200701-page_restrictions.sql.gz.txt2020-07-02 16:48 75
[TXT]md5sums-dewiki-20200701-pagelinks.sql.gz.txt2020-07-02 15:18 67
[TXT]md5sums-dewiki-20200701-pages-articles-multistream-index.txt.bz2.txt2020-07-03 15:29 91
[TXT]md5sums-dewiki-20200701-pages-articles-multistream-index1.txt-p1p262468.bz2.txt2020-07-03 14:53 102
[TXT]md5sums-dewiki-20200701-pages-articles-multistream-index2.txt-p262469p1095940.bz2.txt2020-07-03 14:54 108
[TXT]md5sums-dewiki-20200701-pages-articles-multistream-index3.txt-p1095941p2595940.bz2.txt2020-07-03 14:55 109
[TXT]md5sums-dewiki-20200701-pages-articles-multistream-index3.txt-p2595941p2920048.bz2.txt2020-07-03 14:56 109
[TXT]md5sums-dewiki-20200701-pages-articles-multistream-index4.txt-p2920049p4420048.bz2.txt2020-07-03 14:56 109
[TXT]md5sums-dewiki-20200701-pages-articles-multistream-index4.txt-p4420049p5466275.bz2.txt2020-07-03 14:57 109
[TXT]md5sums-dewiki-20200701-pages-articles-multistream-index5.txt-p5466276p6966275.bz2.txt2020-07-03 14:58 109
[TXT]md5sums-dewiki-20200701-pages-articles-multistream-index5.txt-p6966276p8342168.bz2.txt2020-07-03 15:00 109
[TXT]md5sums-dewiki-20200701-pages-articles-multistream-index6.txt-p8342169p9842168.bz2.txt2020-07-03 15:00 109
[TXT]md5sums-dewiki-20200701-pages-articles-multistream-index6.txt-p9842169p11342168.bz2.txt2020-07-03 15:01 110
[TXT]md5sums-dewiki-20200701-pages-articles-multistream-index6.txt-p11342169p11361661.bz2.txt2020-07-03 15:01 111
[TXT]md5sums-dewiki-20200701-pages-articles-multistream.xml.bz2.txt2020-07-03 15:27 85
[TXT]md5sums-dewiki-20200701-pages-articles-multistream1.xml-p1p262468.bz2.txt2020-07-03 14:52 96
[TXT]md5sums-dewiki-20200701-pages-articles-multistream2.xml-p262469p1095940.bz2.txt2020-07-03 14:54 102
[TXT]md5sums-dewiki-20200701-pages-articles-multistream3.xml-p1095941p2595940.bz2.txt2020-07-03 14:55 103
[TXT]md5sums-dewiki-20200701-pages-articles-multistream3.xml-p2595941p2920048.bz2.txt2020-07-03 14:55 103
[TXT]md5sums-dewiki-20200701-pages-articles-multistream4.xml-p2920049p4420048.bz2.txt2020-07-03 14:56 103
[TXT]md5sums-dewiki-20200701-pages-articles-multistream4.xml-p4420049p5466275.bz2.txt2020-07-03 14:57 103
[TXT]md5sums-dewiki-20200701-pages-articles-multistream5.xml-p5466276p6966275.bz2.txt2020-07-03 14:58 103
[TXT]md5sums-dewiki-20200701-pages-articles-multistream5.xml-p6966276p8342168.bz2.txt2020-07-03 14:59 103
[TXT]md5sums-dewiki-20200701-pages-articles-multistream6.xml-p8342169p9842168.bz2.txt2020-07-03 15:00 103
[TXT]md5sums-dewiki-20200701-pages-articles-multistream6.xml-p9842169p11342168.bz2.txt2020-07-03 15:01 104
[TXT]md5sums-dewiki-20200701-pages-articles-multistream6.xml-p11342169p11361661.bz2.txt2020-07-03 15:01 105
[TXT]md5sums-dewiki-20200701-pages-articles.xml.bz2.txt2020-07-03 03:45 73
[TXT]md5sums-dewiki-20200701-pages-articles1.xml-p1p262468.bz2.txt2020-07-03 01:49 84
[TXT]md5sums-dewiki-20200701-pages-articles2.xml-p262469p1095940.bz2.txt2020-07-03 01:49 90
[TXT]md5sums-dewiki-20200701-pages-articles3.xml-p1095941p2595940.bz2.txt2020-07-03 01:50 91
[TXT]md5sums-dewiki-20200701-pages-articles3.xml-p2595941p2920048.bz2.txt2020-07-03 01:51 91
[TXT]md5sums-dewiki-20200701-pages-articles4.xml-p2920049p4420048.bz2.txt2020-07-03 01:51 91
[TXT]md5sums-dewiki-20200701-pages-articles4.xml-p4420049p5466275.bz2.txt2020-07-03 01:52 91
[TXT]md5sums-dewiki-20200701-pages-articles5.xml-p5466276p6966275.bz2.txt2020-07-03 01:53 91
[TXT]md5sums-dewiki-20200701-pages-articles5.xml-p6966276p8342168.bz2.txt2020-07-03 01:54 91
[TXT]md5sums-dewiki-20200701-pages-articles6.xml-p8342169p9842168.bz2.txt2020-07-03 01:55 91
[TXT]md5sums-dewiki-20200701-pages-articles6.xml-p9842169p11342168.bz2.txt2020-07-03 01:56 92
[TXT]md5sums-dewiki-20200701-pages-articles6.xml-p11342169p11361661.bz2.txt2020-07-03 01:56 93
[TXT]md5sums-dewiki-20200701-pages-logging.xml.gz.txt2020-07-06 13:34 71
[TXT]md5sums-dewiki-20200701-pages-logging1.xml.gz.txt2020-07-06 13:24 72
[TXT]md5sums-dewiki-20200701-pages-logging2.xml.gz.txt2020-07-06 13:24 72
[TXT]md5sums-dewiki-20200701-pages-logging3.xml.gz.txt2020-07-06 13:25 72
[TXT]md5sums-dewiki-20200701-pages-logging4.xml.gz.txt2020-07-06 13:26 72
[TXT]md5sums-dewiki-20200701-pages-logging5.xml.gz.txt2020-07-06 13:26 72
[TXT]md5sums-dewiki-20200701-pages-logging6.xml.gz.txt2020-07-06 13:27 72
[TXT]md5sums-dewiki-20200701-pages-meta-current.xml.bz2.txt2020-07-04 23:38 77
[TXT]md5sums-dewiki-20200701-pages-meta-current1.xml-p1p262468.bz2.txt2020-07-04 21:36 88
[TXT]md5sums-dewiki-20200701-pages-meta-current2.xml-p262469p1095940.bz2.txt2020-07-04 21:38 94
[TXT]md5sums-dewiki-20200701-pages-meta-current3.xml-p1095941p2595940.bz2.txt2020-07-04 21:40 95
[TXT]md5sums-dewiki-20200701-pages-meta-current3.xml-p2595941p2920048.bz2.txt2020-07-04 21:42 95
[TXT]md5sums-dewiki-20200701-pages-meta-current4.xml-p2920049p4420048.bz2.txt2020-07-04 21:44 95
[TXT]md5sums-dewiki-20200701-pages-meta-current4.xml-p4420049p5466275.bz2.txt2020-07-04 21:45 95
[TXT]md5sums-dewiki-20200701-pages-meta-current5.xml-p5466276p6966275.bz2.txt2020-07-04 21:46 95
[TXT]md5sums-dewiki-20200701-pages-meta-current5.xml-p6966276p8342168.bz2.txt2020-07-04 21:47 95
[TXT]md5sums-dewiki-20200701-pages-meta-current6.xml-p8342169p9842168.bz2.txt2020-07-04 21:48 95
[TXT]md5sums-dewiki-20200701-pages-meta-current6.xml-p9842169p11342168.bz2.txt2020-07-04 21:49 96
[TXT]md5sums-dewiki-20200701-pages-meta-current6.xml-p11342169p11361661.bz2.txt2020-07-04 21:49 97
[TXT]md5sums-dewiki-20200701-pages-meta-history1.xml-p1p1644.7z.txt2020-07-09 14:51 85
[TXT]md5sums-dewiki-20200701-pages-meta-history1.xml-p1p1644.bz2.txt2020-07-08 17:26 86
[TXT]md5sums-dewiki-20200701-pages-meta-history1.xml-p1645p3502.7z.txt2020-07-09 14:51 88
[TXT]md5sums-dewiki-20200701-pages-meta-history1.xml-p1645p3502.bz2.txt2020-07-08 17:29 89
[TXT]md5sums-dewiki-20200701-pages-meta-history1.xml-p3503p5226.7z.txt2020-07-09 14:51 88
[TXT]md5sums-dewiki-20200701-pages-meta-history1.xml-p3503p5226.bz2.txt2020-07-08 17:32 89
[TXT]md5sums-dewiki-20200701-pages-meta-history1.xml-p5227p6320.7z.txt2020-07-09 14:51 88
[TXT]md5sums-dewiki-20200701-pages-meta-history1.xml-p5227p6320.bz2.txt2020-07-08 17:34 89
[TXT]md5sums-dewiki-20200701-pages-meta-history1.xml-p6321p9402.7z.txt2020-07-09 14:51 88
[TXT]md5sums-dewiki-20200701-pages-meta-history1.xml-p6321p9402.bz2.txt2020-07-08 17:39 89
[TXT]md5sums-dewiki-20200701-pages-meta-history1.xml-p9403p12387.7z.txt2020-07-09 14:51 89
[TXT]md5sums-dewiki-20200701-pages-meta-history1.xml-p9403p12387.bz2.txt2020-07-08 17:43 90
[TXT]md5sums-dewiki-20200701-pages-meta-history1.xml-p12388p15360.7z.txt2020-07-09 14:51 90
[TXT]md5sums-dewiki-20200701-pages-meta-history1.xml-p12388p15360.bz2.txt2020-07-08 17:45 91
[TXT]md5sums-dewiki-20200701-pages-meta-history1.xml-p15361p18411.7z.txt2020-07-09 14:52 90
[TXT]md5sums-dewiki-20200701-pages-meta-history1.xml-p15361p18411.bz2.txt2020-07-08 17:47 91
[TXT]md5sums-dewiki-20200701-pages-meta-history1.xml-p18412p22560.7z.txt2020-07-09 14:52 90
[TXT]md5sums-dewiki-20200701-pages-meta-history1.xml-p18412p22560.bz2.txt2020-07-08 17:50 91
[TXT]md5sums-dewiki-20200701-pages-meta-history1.xml-p22561p29967.7z.txt2020-07-09 14:52 90
[TXT]md5sums-dewiki-20200701-pages-meta-history1.xml-p22561p29967.bz2.txt2020-07-08 17:54 91
[TXT]md5sums-dewiki-20200701-pages-meta-history1.xml-p29968p35360.7z.txt2020-07-09 14:52 90
[TXT]md5sums-dewiki-20200701-pages-meta-history1.xml-p29968p35360.bz2.txt2020-07-08 17:59 91
[TXT]md5sums-dewiki-20200701-pages-meta-history1.xml-p35361p43797.7z.txt2020-07-09 14:52 90
[TXT]md5sums-dewiki-20200701-pages-meta-history1.xml-p35361p43797.bz2.txt2020-07-08 18:07 91
[TXT]md5sums-dewiki-20200701-pages-meta-history1.xml-p43798p51751.7z.txt2020-07-09 14:52 90
[TXT]md5sums-dewiki-20200701-pages-meta-history1.xml-p43798p51751.bz2.txt2020-07-08 18:12 91
[TXT]md5sums-dewiki-20200701-pages-meta-history1.xml-p51752p60775.7z.txt2020-07-09 14:52 90
[TXT]md5sums-dewiki-20200701-pages-meta-history1.xml-p51752p60775.bz2.txt2020-07-08 18:17 91
[TXT]md5sums-dewiki-20200701-pages-meta-history1.xml-p60776p72800.7z.txt2020-07-09 14:52 90
[TXT]md5sums-dewiki-20200701-pages-meta-history1.xml-p60776p72800.bz2.txt2020-07-08 18:22 91
[TXT]md5sums-dewiki-20200701-pages-meta-history1.xml-p72801p85076.7z.txt2020-07-09 14:53 90
[TXT]md5sums-dewiki-20200701-pages-meta-history1.xml-p72801p85076.bz2.txt2020-07-08 18:27 91
[TXT]md5sums-dewiki-20200701-pages-meta-history1.xml-p85077p97725.7z.txt2020-07-09 14:53 90
[TXT]md5sums-dewiki-20200701-pages-meta-history1.xml-p85077p97725.bz2.txt2020-07-08 18:31 91
[TXT]md5sums-dewiki-20200701-pages-meta-history1.xml-p97726p112426.7z.txt2020-07-09 14:53 91
[TXT]md5sums-dewiki-20200701-pages-meta-history1.xml-p97726p112426.bz2.txt2020-07-08 18:36 92
[TXT]md5sums-dewiki-20200701-pages-meta-history1.xml-p112427p128540.7z.txt2020-07-09 14:53 92
[TXT]md5sums-dewiki-20200701-pages-meta-history1.xml-p112427p128540.bz2.txt2020-07-08 18:44 93
[TXT]md5sums-dewiki-20200701-pages-meta-history1.xml-p128541p143388.7z.txt2020-07-09 14:53 92
[TXT]md5sums-dewiki-20200701-pages-meta-history1.xml-p128541p143388.bz2.txt2020-07-08 18:48 93
[TXT]md5sums-dewiki-20200701-pages-meta-history1.xml-p143389p161120.7z.txt2020-07-09 14:53 92
[TXT]md5sums-dewiki-20200701-pages-meta-history1.xml-p143389p161120.bz2.txt2020-07-08 18:51 93
[TXT]md5sums-dewiki-20200701-pages-meta-history1.xml-p161121p179221.7z.txt2020-07-09 14:53 92
[TXT]md5sums-dewiki-20200701-pages-meta-history1.xml-p161121p179221.bz2.txt2020-07-08 18:56 93
[TXT]md5sums-dewiki-20200701-pages-meta-history1.xml-p179222p199922.7z.txt2020-07-09 14:53 92
[TXT]md5sums-dewiki-20200701-pages-meta-history1.xml-p179222p199922.bz2.txt2020-07-08 19:01 93
[TXT]md5sums-dewiki-20200701-pages-meta-history1.xml-p199923p221365.7z.txt2020-07-09 14:54 92
[TXT]md5sums-dewiki-20200701-pages-meta-history1.xml-p199923p221365.bz2.txt2020-07-08 19:10 93
[TXT]md5sums-dewiki-20200701-pages-meta-history1.xml-p221366p245994.7z.txt2020-07-09 14:54 92
[TXT]md5sums-dewiki-20200701-pages-meta-history1.xml-p221366p245994.bz2.txt2020-07-08 19:18 93
[TXT]md5sums-dewiki-20200701-pages-meta-history1.xml-p245995p262468.7z.txt2020-07-09 14:54 92
[TXT]md5sums-dewiki-20200701-pages-meta-history1.xml-p245995p262468.bz2.txt2020-07-08 19:22 93
[TXT]md5sums-dewiki-20200701-pages-meta-history2.xml-p262469p287677.7z.txt2020-07-09 14:54 92
[TXT]md5sums-dewiki-20200701-pages-meta-history2.xml-p262469p287677.bz2.txt2020-07-08 19:25 93
[TXT]md5sums-dewiki-20200701-pages-meta-history2.xml-p287678p313326.7z.txt2020-07-09 14:54 92
[TXT]md5sums-dewiki-20200701-pages-meta-history2.xml-p287678p313326.bz2.txt2020-07-08 19:29 93
[TXT]md5sums-dewiki-20200701-pages-meta-history2.xml-p313327p340715.7z.txt2020-07-09 14:54 92
[TXT]md5sums-dewiki-20200701-pages-meta-history2.xml-p313327p340715.bz2.txt2020-07-08 19:35 93
[TXT]md5sums-dewiki-20200701-pages-meta-history2.xml-p340716p371207.7z.txt2020-07-09 14:54 92
[TXT]md5sums-dewiki-20200701-pages-meta-history2.xml-p340716p371207.bz2.txt2020-07-08 19:40 93
[TXT]md5sums-dewiki-20200701-pages-meta-history2.xml-p371208p403097.7z.txt2020-07-09 14:54 92
[TXT]md5sums-dewiki-20200701-pages-meta-history2.xml-p371208p403097.bz2.txt2020-07-08 19:43 93
[TXT]md5sums-dewiki-20200701-pages-meta-history2.xml-p403098p439322.7z.txt2020-07-09 14:55 92
[TXT]md5sums-dewiki-20200701-pages-meta-history2.xml-p403098p439322.bz2.txt2020-07-08 19:47 93
[TXT]md5sums-dewiki-20200701-pages-meta-history2.xml-p439323p468937.7z.txt2020-07-09 14:55 92
[TXT]md5sums-dewiki-20200701-pages-meta-history2.xml-p439323p468937.bz2.txt2020-07-08 19:51 93
[TXT]md5sums-dewiki-20200701-pages-meta-history2.xml-p468938p499400.7z.txt2020-07-09 14:55 92
[TXT]md5sums-dewiki-20200701-pages-meta-history2.xml-p468938p499400.bz2.txt2020-07-08 19:54 93
[TXT]md5sums-dewiki-20200701-pages-meta-history2.xml-p499401p539462.7z.txt2020-07-09 14:55 92
[TXT]md5sums-dewiki-20200701-pages-meta-history2.xml-p499401p539462.bz2.txt2020-07-08 19:55 93
[TXT]md5sums-dewiki-20200701-pages-meta-history2.xml-p539463p581885.7z.txt2020-07-09 14:55 92
[TXT]md5sums-dewiki-20200701-pages-meta-history2.xml-p539463p581885.bz2.txt2020-07-08 19:57 93
[TXT]md5sums-dewiki-20200701-pages-meta-history2.xml-p581886p621133.7z.txt2020-07-09 14:55 92
[TXT]md5sums-dewiki-20200701-pages-meta-history2.xml-p581886p621133.bz2.txt2020-07-08 20:04 93
[TXT]md5sums-dewiki-20200701-pages-meta-history2.xml-p621134p666314.7z.txt2020-07-09 14:55 92
[TXT]md5sums-dewiki-20200701-pages-meta-history2.xml-p621134p666314.bz2.txt2020-07-08 20:11 93
[TXT]md5sums-dewiki-20200701-pages-meta-history2.xml-p666315p700139.7z.txt2020-07-09 14:56 92
[TXT]md5sums-dewiki-20200701-pages-meta-history2.xml-p666315p700139.bz2.txt2020-07-08 20:19 93
[TXT]md5sums-dewiki-20200701-pages-meta-history2.xml-p700140p738575.7z.txt2020-07-09 14:56 92
[TXT]md5sums-dewiki-20200701-pages-meta-history2.xml-p700140p738575.bz2.txt2020-07-08 20:25 93
[TXT]md5sums-dewiki-20200701-pages-meta-history2.xml-p738576p783302.7z.txt2020-07-09 14:56 92
[TXT]md5sums-dewiki-20200701-pages-meta-history2.xml-p738576p783302.bz2.txt2020-07-08 20:31 93
[TXT]md5sums-dewiki-20200701-pages-meta-history2.xml-p783303p826430.7z.txt2020-07-09 14:56 92
[TXT]md5sums-dewiki-20200701-pages-meta-history2.xml-p783303p826430.bz2.txt2020-07-08 20:37 93
[TXT]md5sums-dewiki-20200701-pages-meta-history2.xml-p826431p869423.7z.txt2020-07-09 14:57 92
[TXT]md5sums-dewiki-20200701-pages-meta-history2.xml-p826431p869423.bz2.txt2020-07-08 20:44 93
[TXT]md5sums-dewiki-20200701-pages-meta-history2.xml-p869424p919966.7z.txt2020-07-09 14:57 92
[TXT]md5sums-dewiki-20200701-pages-meta-history2.xml-p869424p919966.bz2.txt2020-07-08 20:47 93
[TXT]md5sums-dewiki-20200701-pages-meta-history2.xml-p919967p973180.7z.txt2020-07-09 14:57 92
[TXT]md5sums-dewiki-20200701-pages-meta-history2.xml-p919967p973180.bz2.txt2020-07-08 20:50 93
[TXT]md5sums-dewiki-20200701-pages-meta-history2.xml-p973181p1022031.7z.txt2020-07-09 14:57 93
[TXT]md5sums-dewiki-20200701-pages-meta-history2.xml-p973181p1022031.bz2.txt2020-07-08 20:52 94
[TXT]md5sums-dewiki-20200701-pages-meta-history2.xml-p1022032p1079412.7z.txt2020-07-09 14:57 94
[TXT]md5sums-dewiki-20200701-pages-meta-history2.xml-p1022032p1079412.bz2.txt2020-07-08 20:55 95
[TXT]md5sums-dewiki-20200701-pages-meta-history2.xml-p1079413p1095940.7z.txt2020-07-09 14:57 94
[TXT]md5sums-dewiki-20200701-pages-meta-history2.xml-p1079413p1095940.bz2.txt2020-07-08 20:57 95
[TXT]md5sums-dewiki-20200701-pages-meta-history3.xml-p1095941p1155652.7z.txt2020-07-09 14:57 94
[TXT]md5sums-dewiki-20200701-pages-meta-history3.xml-p1095941p1155652.bz2.txt2020-07-08 20:59 95
[TXT]md5sums-dewiki-20200701-pages-meta-history3.xml-p1155653p1217898.7z.txt2020-07-09 14:58 94
[TXT]md5sums-dewiki-20200701-pages-meta-history3.xml-p1155653p1217898.bz2.txt2020-07-08 21:03 95
[TXT]md5sums-dewiki-20200701-pages-meta-history3.xml-p1217899p1277065.7z.txt2020-07-09 14:58 94
[TXT]md5sums-dewiki-20200701-pages-meta-history3.xml-p1217899p1277065.bz2.txt2020-07-08 21:08 95
[TXT]md5sums-dewiki-20200701-pages-meta-history3.xml-p1277066p1341772.7z.txt2020-07-09 14:58 94
[TXT]md5sums-dewiki-20200701-pages-meta-history3.xml-p1277066p1341772.bz2.txt2020-07-08 21:14 95
[TXT]md5sums-dewiki-20200701-pages-meta-history3.xml-p1341773p1405364.7z.txt2020-07-09 14:58 94
[TXT]md5sums-dewiki-20200701-pages-meta-history3.xml-p1341773p1405364.bz2.txt2020-07-08 21:21 95
[TXT]md5sums-dewiki-20200701-pages-meta-history3.xml-p1405365p1475749.7z.txt2020-07-09 14:58 94
[TXT]md5sums-dewiki-20200701-pages-meta-history3.xml-p1405365p1475749.bz2.txt2020-07-08 21:28 95
[TXT]md5sums-dewiki-20200701-pages-meta-history3.xml-p1475750p1548492.7z.txt2020-07-09 14:58 94
[TXT]md5sums-dewiki-20200701-pages-meta-history3.xml-p1475750p1548492.bz2.txt2020-07-08 21:37 95
[TXT]md5sums-dewiki-20200701-pages-meta-history3.xml-p1548493p1624266.7z.txt2020-07-09 14:59 94
[TXT]md5sums-dewiki-20200701-pages-meta-history3.xml-p1548493p1624266.bz2.txt2020-07-08 21:44 95
[TXT]md5sums-dewiki-20200701-pages-meta-history3.xml-p1624267p1692929.7z.txt2020-07-09 14:59 94
[TXT]md5sums-dewiki-20200701-pages-meta-history3.xml-p1624267p1692929.bz2.txt2020-07-08 21:47 95
[TXT]md5sums-dewiki-20200701-pages-meta-history3.xml-p1692930p1764358.7z.txt2020-07-09 14:59 94
[TXT]md5sums-dewiki-20200701-pages-meta-history3.xml-p1692930p1764358.bz2.txt2020-07-08 21:51 95
[TXT]md5sums-dewiki-20200701-pages-meta-history3.xml-p1764359p1845726.7z.txt2020-07-09 14:59 94
[TXT]md5sums-dewiki-20200701-pages-meta-history3.xml-p1764359p1845726.bz2.txt2020-07-08 21:58 95
[TXT]md5sums-dewiki-20200701-pages-meta-history3.xml-p1845727p1927614.7z.txt2020-07-09 14:59 94
[TXT]md5sums-dewiki-20200701-pages-meta-history3.xml-p1845727p1927614.bz2.txt2020-07-08 22:06 95
[TXT]md5sums-dewiki-20200701-pages-meta-history3.xml-p1927615p2033979.7z.txt2020-07-09 14:59 94
[TXT]md5sums-dewiki-20200701-pages-meta-history3.xml-p1927615p2033979.bz2.txt2020-07-08 22:12 95
[TXT]md5sums-dewiki-20200701-pages-meta-history3.xml-p2033980p2133625.7z.txt2020-07-09 15:00 94
[TXT]md5sums-dewiki-20200701-pages-meta-history3.xml-p2033980p2133625.bz2.txt2020-07-08 22:18 95
[TXT]md5sums-dewiki-20200701-pages-meta-history3.xml-p2133626p2236670.7z.txt2020-07-09 15:00 94
[TXT]md5sums-dewiki-20200701-pages-meta-history3.xml-p2133626p2236670.bz2.txt2020-07-08 22:25 95
[TXT]md5sums-dewiki-20200701-pages-meta-history3.xml-p2236671p2343325.7z.txt2020-07-09 15:00 94
[TXT]md5sums-dewiki-20200701-pages-meta-history3.xml-p2236671p2343325.bz2.txt2020-07-08 22:31 95
[TXT]md5sums-dewiki-20200701-pages-meta-history3.xml-p2343326p2464919.7z.txt2020-07-09 15:00 94
[TXT]md5sums-dewiki-20200701-pages-meta-history3.xml-p2343326p2464919.bz2.txt2020-07-08 22:38 95
[TXT]md5sums-dewiki-20200701-pages-meta-history3.xml-p2464920p2587577.7z.txt2020-07-09 15:00 94
[TXT]md5sums-dewiki-20200701-pages-meta-history3.xml-p2464920p2587577.bz2.txt2020-07-08 22:44 95
[TXT]md5sums-dewiki-20200701-pages-meta-history3.xml-p2587578p2671548.7z.txt2020-07-09 15:00 94
[TXT]md5sums-dewiki-20200701-pages-meta-history3.xml-p2587578p2671548.bz2.txt2020-07-08 22:48 95
[TXT]md5sums-dewiki-20200701-pages-meta-history3.xml-p2671549p2770759.7z.txt2020-07-09 15:01 94
[TXT]md5sums-dewiki-20200701-pages-meta-history3.xml-p2671549p2770759.bz2.txt2020-07-08 22:53 95
[TXT]md5sums-dewiki-20200701-pages-meta-history3.xml-p2770760p2865786.7z.txt2020-07-09 15:01 94
[TXT]md5sums-dewiki-20200701-pages-meta-history3.xml-p2770760p2865786.bz2.txt2020-07-08 23:01 95
[TXT]md5sums-dewiki-20200701-pages-meta-history3.xml-p2865787p2920048.7z.txt2020-07-09 15:01 94
[TXT]md5sums-dewiki-20200701-pages-meta-history3.xml-p2865787p2920048.bz2.txt2020-07-08 23:06 95
[TXT]md5sums-dewiki-20200701-pages-meta-history4.xml-p2920049p3033857.7z.txt2020-07-09 15:01 94
[TXT]md5sums-dewiki-20200701-pages-meta-history4.xml-p2920049p3033857.bz2.txt2020-07-08 23:11 95
[TXT]md5sums-dewiki-20200701-pages-meta-history4.xml-p3033858p3094918.7z.txt2020-07-09 15:01 94
[TXT]md5sums-dewiki-20200701-pages-meta-history4.xml-p3033858p3094918.bz2.txt2020-07-08 23:19 95
[TXT]md5sums-dewiki-20200701-pages-meta-history4.xml-p3094919p3200926.7z.txt2020-07-09 15:01 94
[TXT]md5sums-dewiki-20200701-pages-meta-history4.xml-p3094919p3200926.bz2.txt2020-07-08 23:25 95
[TXT]md5sums-dewiki-20200701-pages-meta-history4.xml-p3200927p3333572.7z.txt2020-07-09 15:01 94
[TXT]md5sums-dewiki-20200701-pages-meta-history4.xml-p3200927p3333572.bz2.txt2020-07-08 23:28 95
[TXT]md5sums-dewiki-20200701-pages-meta-history4.xml-p3333573p3441894.7z.txt2020-07-09 15:02 94
[TXT]md5sums-dewiki-20200701-pages-meta-history4.xml-p3333573p3441894.bz2.txt2020-07-08 23:31 95
[TXT]md5sums-dewiki-20200701-pages-meta-history4.xml-p3441895p3557452.7z.txt2020-07-09 15:02 94
[TXT]md5sums-dewiki-20200701-pages-meta-history4.xml-p3441895p3557452.bz2.txt2020-07-08 23:34 95
[TXT]md5sums-dewiki-20200701-pages-meta-history4.xml-p3557453p3672250.7z.txt2020-07-09 15:02 94
[TXT]md5sums-dewiki-20200701-pages-meta-history4.xml-p3557453p3672250.bz2.txt2020-07-08 23:36 95
[TXT]md5sums-dewiki-20200701-pages-meta-history4.xml-p3672251p3778275.7z.txt2020-07-09 15:02 94
[TXT]md5sums-dewiki-20200701-pages-meta-history4.xml-p3672251p3778275.bz2.txt2020-07-08 23:39 95
[TXT]md5sums-dewiki-20200701-pages-meta-history4.xml-p3778276p3886692.7z.txt2020-07-09 15:02 94
[TXT]md5sums-dewiki-20200701-pages-meta-history4.xml-p3778276p3886692.bz2.txt2020-07-08 23:43 95
[TXT]md5sums-dewiki-20200701-pages-meta-history4.xml-p3886693p4017456.7z.txt2020-07-09 15:03 94
[TXT]md5sums-dewiki-20200701-pages-meta-history4.xml-p3886693p4017456.bz2.txt2020-07-08 23:50 95
[TXT]md5sums-dewiki-20200701-pages-meta-history4.xml-p4017457p4129518.7z.txt2020-07-09 15:03 94
[TXT]md5sums-dewiki-20200701-pages-meta-history4.xml-p4017457p4129518.bz2.txt2020-07-08 23:56 95
[TXT]md5sums-dewiki-20200701-pages-meta-history4.xml-p4129519p4251086.7z.txt2020-07-09 15:03 94
[TXT]md5sums-dewiki-20200701-pages-meta-history4.xml-p4129519p4251086.bz2.txt2020-07-09 00:05 95
[TXT]md5sums-dewiki-20200701-pages-meta-history4.xml-p4251087p4329649.7z.txt2020-07-09 15:03 94
[TXT]md5sums-dewiki-20200701-pages-meta-history4.xml-p4251087p4329649.bz2.txt2020-07-09 00:09 95
[TXT]md5sums-dewiki-20200701-pages-meta-history4.xml-p4329650p4369721.7z.txt2020-07-09 15:03 94
[TXT]md5sums-dewiki-20200701-pages-meta-history4.xml-p4329650p4369721.bz2.txt2020-07-09 00:15 95
[TXT]md5sums-dewiki-20200701-pages-meta-history4.xml-p4369722p4469644.7z.txt2020-07-09 15:03 94
[TXT]md5sums-dewiki-20200701-pages-meta-history4.xml-p4369722p4469644.bz2.txt2020-07-09 00:23 95
[TXT]md5sums-dewiki-20200701-pages-meta-history4.xml-p4469645p4560198.7z.txt2020-07-09 15:04 94
[TXT]md5sums-dewiki-20200701-pages-meta-history4.xml-p4469645p4560198.bz2.txt2020-07-09 00:28 95
[TXT]md5sums-dewiki-20200701-pages-meta-history4.xml-p4560199p4686820.7z.txt2020-07-09 15:04 94
[TXT]md5sums-dewiki-20200701-pages-meta-history4.xml-p4560199p4686820.bz2.txt2020-07-09 00:32 95
[TXT]md5sums-dewiki-20200701-pages-meta-history4.xml-p4686821p4795333.7z.txt2020-07-09 15:04 94
[TXT]md5sums-dewiki-20200701-pages-meta-history4.xml-p4686821p4795333.bz2.txt2020-07-09 00:35 95
[TXT]md5sums-dewiki-20200701-pages-meta-history4.xml-p4795334p4904964.7z.txt2020-07-09 15:04 94
[TXT]md5sums-dewiki-20200701-pages-meta-history4.xml-p4795334p4904964.bz2.txt2020-07-09 00:40 95
[TXT]md5sums-dewiki-20200701-pages-meta-history4.xml-p4904965p5001983.7z.txt2020-07-09 15:04 94
[TXT]md5sums-dewiki-20200701-pages-meta-history4.xml-p4904965p5001983.bz2.txt2020-07-09 00:46 95
[TXT]md5sums-dewiki-20200701-pages-meta-history4.xml-p5001984p5082629.7z.txt2020-07-09 15:04 94
[TXT]md5sums-dewiki-20200701-pages-meta-history4.xml-p5001984p5082629.bz2.txt2020-07-09 00:50 95
[TXT]md5sums-dewiki-20200701-pages-meta-history4.xml-p5082630p5221048.7z.txt2020-07-09 15:05 94
[TXT]md5sums-dewiki-20200701-pages-meta-history4.xml-p5082630p5221048.bz2.txt2020-07-09 00:53 95
[TXT]md5sums-dewiki-20200701-pages-meta-history4.xml-p5221049p5341946.7z.txt2020-07-09 15:05 94
[TXT]md5sums-dewiki-20200701-pages-meta-history4.xml-p5221049p5341946.bz2.txt2020-07-09 00:55 95
[TXT]md5sums-dewiki-20200701-pages-meta-history4.xml-p5341947p5460592.7z.txt2020-07-09 15:05 94
[TXT]md5sums-dewiki-20200701-pages-meta-history4.xml-p5341947p5460592.bz2.txt2020-07-09 00:58 95
[TXT]md5sums-dewiki-20200701-pages-meta-history4.xml-p5460593p5466275.7z.txt2020-07-09 15:05 94
[TXT]md5sums-dewiki-20200701-pages-meta-history4.xml-p5460593p5466275.bz2.txt2020-07-09 00:59 95
[TXT]md5sums-dewiki-20200701-pages-meta-history5.xml-p5466276p5571534.7z.txt2020-07-09 15:05 94
[TXT]md5sums-dewiki-20200701-pages-meta-history5.xml-p5466276p5571534.bz2.txt2020-07-09 01:01 95
[TXT]md5sums-dewiki-20200701-pages-meta-history5.xml-p5571535p5699572.7z.txt2020-07-09 15:05 94
[TXT]md5sums-dewiki-20200701-pages-meta-history5.xml-p5571535p5699572.bz2.txt2020-07-09 01:03 95
[TXT]md5sums-dewiki-20200701-pages-meta-history5.xml-p5699573p5842124.7z.txt2020-07-09 15:06 94
[TXT]md5sums-dewiki-20200701-pages-meta-history5.xml-p5699573p5842124.bz2.txt2020-07-09 01:06 95
[TXT]md5sums-dewiki-20200701-pages-meta-history5.xml-p5842125p5939233.7z.txt2020-07-09 15:06 94
[TXT]md5sums-dewiki-20200701-pages-meta-history5.xml-p5842125p5939233.bz2.txt2020-07-09 01:09 95
[TXT]md5sums-dewiki-20200701-pages-meta-history5.xml-p5939234p6066468.7z.txt2020-07-09 15:06 94
[TXT]md5sums-dewiki-20200701-pages-meta-history5.xml-p5939234p6066468.bz2.txt2020-07-09 01:16 95
[TXT]md5sums-dewiki-20200701-pages-meta-history5.xml-p6066469p6166928.7z.txt2020-07-09 15:06 94
[TXT]md5sums-dewiki-20200701-pages-meta-history5.xml-p6066469p6166928.bz2.txt2020-07-09 01:21 95
[TXT]md5sums-dewiki-20200701-pages-meta-history5.xml-p6166929p6284045.7z.txt2020-07-09 15:06 94
[TXT]md5sums-dewiki-20200701-pages-meta-history5.xml-p6166929p6284045.bz2.txt2020-07-09 01:24 95
[TXT]md5sums-dewiki-20200701-pages-meta-history5.xml-p6284046p6354781.7z.txt2020-07-09 15:06 94
[TXT]md5sums-dewiki-20200701-pages-meta-history5.xml-p6284046p6354781.bz2.txt2020-07-09 01:27 95
[TXT]md5sums-dewiki-20200701-pages-meta-history5.xml-p6354782p6458934.7z.txt2020-07-09 15:07 94
[TXT]md5sums-dewiki-20200701-pages-meta-history5.xml-p6354782p6458934.bz2.txt2020-07-09 01:32 95
[TXT]md5sums-dewiki-20200701-pages-meta-history5.xml-p6458935p6529885.7z.txt2020-07-09 15:07 94
[TXT]md5sums-dewiki-20200701-pages-meta-history5.xml-p6458935p6529885.bz2.txt2020-07-09 01:36 95
[TXT]md5sums-dewiki-20200701-pages-meta-history5.xml-p6529886p6557837.7z.txt2020-07-09 15:07 94
[TXT]md5sums-dewiki-20200701-pages-meta-history5.xml-p6529886p6557837.bz2.txt2020-07-09 01:40 95
[TXT]md5sums-dewiki-20200701-pages-meta-history5.xml-p6557838p6611238.7z.txt2020-07-09 15:07 94
[TXT]md5sums-dewiki-20200701-pages-meta-history5.xml-p6557838p6611238.bz2.txt2020-07-09 01:43 95
[TXT]md5sums-dewiki-20200701-pages-meta-history5.xml-p6611239p6644957.7z.txt2020-07-09 15:07 94
[TXT]md5sums-dewiki-20200701-pages-meta-history5.xml-p6611239p6644957.bz2.txt2020-07-09 01:46 95
[TXT]md5sums-dewiki-20200701-pages-meta-history5.xml-p6644958p6678807.7z.txt2020-07-09 15:07 94
[TXT]md5sums-dewiki-20200701-pages-meta-history5.xml-p6644958p6678807.bz2.txt2020-07-09 01:50 95
[TXT]md5sums-dewiki-20200701-pages-meta-history5.xml-p6678808p6726819.7z.txt2020-07-09 15:07 94
[TXT]md5sums-dewiki-20200701-pages-meta-history5.xml-p6678808p6726819.bz2.txt2020-07-09 01:53 95
[TXT]md5sums-dewiki-20200701-pages-meta-history5.xml-p6726820p6790940.7z.txt2020-07-09 15:08 94
[TXT]md5sums-dewiki-20200701-pages-meta-history5.xml-p6726820p6790940.bz2.txt2020-07-09 01:57 95
[TXT]md5sums-dewiki-20200701-pages-meta-history5.xml-p6790941p6904308.7z.txt2020-07-09 15:08 94
[TXT]md5sums-dewiki-20200701-pages-meta-history5.xml-p6790941p6904308.bz2.txt2020-07-09 01:59 95
[TXT]md5sums-dewiki-20200701-pages-meta-history5.xml-p6904309p6972095.7z.txt2020-07-09 15:08 94
[TXT]md5sums-dewiki-20200701-pages-meta-history5.xml-p6904309p6972095.bz2.txt2020-07-09 02:00 95
[TXT]md5sums-dewiki-20200701-pages-meta-history5.xml-p6972096p7030664.7z.txt2020-07-09 15:08 94
[TXT]md5sums-dewiki-20200701-pages-meta-history5.xml-p6972096p7030664.bz2.txt2020-07-09 02:02 95
[TXT]md5sums-dewiki-20200701-pages-meta-history5.xml-p7030665p7073089.7z.txt2020-07-09 15:08 94
[TXT]md5sums-dewiki-20200701-pages-meta-history5.xml-p7030665p7073089.bz2.txt2020-07-09 02:03 95
[TXT]md5sums-dewiki-20200701-pages-meta-history5.xml-p7073090p7075995.7z.txt2020-07-09 15:08 94
[TXT]md5sums-dewiki-20200701-pages-meta-history5.xml-p7073090p7075995.bz2.txt2020-07-09 02:03 95
[TXT]md5sums-dewiki-20200701-pages-meta-history5.xml-p7075996p7076352.7z.txt2020-07-09 15:08 94
[TXT]md5sums-dewiki-20200701-pages-meta-history5.xml-p7075996p7076352.bz2.txt2020-07-09 02:03 95
[TXT]md5sums-dewiki-20200701-pages-meta-history5.xml-p7076353p7076707.7z.txt2020-07-09 15:08 94
[TXT]md5sums-dewiki-20200701-pages-meta-history5.xml-p7076353p7076707.bz2.txt2020-07-09 02:10 95
[TXT]md5sums-dewiki-20200701-pages-meta-history5.xml-p7076708p7171592.7z.txt2020-07-09 15:08 94
[TXT]md5sums-dewiki-20200701-pages-meta-history5.xml-p7076708p7171592.bz2.txt2020-07-09 02:15 95
[TXT]md5sums-dewiki-20200701-pages-meta-history5.xml-p7171593p7388583.7z.txt2020-07-09 15:09 94
[TXT]md5sums-dewiki-20200701-pages-meta-history5.xml-p7171593p7388583.bz2.txt2020-07-09 02:17 95
[TXT]md5sums-dewiki-20200701-pages-meta-history5.xml-p7388584p7530812.7z.txt2020-07-09 15:09 94
[TXT]md5sums-dewiki-20200701-pages-meta-history5.xml-p7388584p7530812.bz2.txt2020-07-09 02:19 95
[TXT]md5sums-dewiki-20200701-pages-meta-history5.xml-p7530813p7658659.7z.txt2020-07-09 15:09 94
[TXT]md5sums-dewiki-20200701-pages-meta-history5.xml-p7530813p7658659.bz2.txt2020-07-09 02:21 95
[TXT]md5sums-dewiki-20200701-pages-meta-history5.xml-p7658660p7770117.7z.txt2020-07-09 15:09 94
[TXT]md5sums-dewiki-20200701-pages-meta-history5.xml-p7658660p7770117.bz2.txt2020-07-09 02:22 95
[TXT]md5sums-dewiki-20200701-pages-meta-history5.xml-p7770118p7913879.7z.txt2020-07-09 15:09 94
[TXT]md5sums-dewiki-20200701-pages-meta-history5.xml-p7770118p7913879.bz2.txt2020-07-09 02:24 95
[TXT]md5sums-dewiki-20200701-pages-meta-history5.xml-p7913880p8039743.7z.txt2020-07-09 15:10 94
[TXT]md5sums-dewiki-20200701-pages-meta-history5.xml-p7913880p8039743.bz2.txt2020-07-09 02:25 95
[TXT]md5sums-dewiki-20200701-pages-meta-history5.xml-p8039744p8153806.7z.txt2020-07-09 15:10 94
[TXT]md5sums-dewiki-20200701-pages-meta-history5.xml-p8039744p8153806.bz2.txt2020-07-09 02:27 95
[TXT]md5sums-dewiki-20200701-pages-meta-history5.xml-p8153807p8303172.7z.txt2020-07-09 15:10 94
[TXT]md5sums-dewiki-20200701-pages-meta-history5.xml-p8153807p8303172.bz2.txt2020-07-09 02:28 95
[TXT]md5sums-dewiki-20200701-pages-meta-history5.xml-p8303173p8342168.7z.txt2020-07-09 15:10 94
[TXT]md5sums-dewiki-20200701-pages-meta-history5.xml-p8303173p8342168.bz2.txt2020-07-09 02:30 95
[TXT]md5sums-dewiki-20200701-pages-meta-history6.xml-p8342169p8476940.7z.txt2020-07-09 15:10 94
[TXT]md5sums-dewiki-20200701-pages-meta-history6.xml-p8342169p8476940.bz2.txt2020-07-09 02:32 95
[TXT]md5sums-dewiki-20200701-pages-meta-history6.xml-p8476941p8617794.7z.txt2020-07-09 15:10 94
[TXT]md5sums-dewiki-20200701-pages-meta-history6.xml-p8476941p8617794.bz2.txt2020-07-09 02:33 95
[TXT]md5sums-dewiki-20200701-pages-meta-history6.xml-p8617795p8854840.7z.txt2020-07-09 15:11 94
[TXT]md5sums-dewiki-20200701-pages-meta-history6.xml-p8617795p8854840.bz2.txt2020-07-09 02:34 95
[TXT]md5sums-dewiki-20200701-pages-meta-history6.xml-p8854841p8967497.7z.txt2020-07-09 15:11 94
[TXT]md5sums-dewiki-20200701-pages-meta-history6.xml-p8854841p8967497.bz2.txt2020-07-09 02:35 95
[TXT]md5sums-dewiki-20200701-pages-meta-history6.xml-p8967498p9064904.7z.txt2020-07-09 15:11 94
[TXT]md5sums-dewiki-20200701-pages-meta-history6.xml-p8967498p9064904.bz2.txt2020-07-09 02:37 95
[TXT]md5sums-dewiki-20200701-pages-meta-history6.xml-p9064905p9082209.7z.txt2020-07-09 15:11 94
[TXT]md5sums-dewiki-20200701-pages-meta-history6.xml-p9064905p9082209.bz2.txt2020-07-09 02:38 95
[TXT]md5sums-dewiki-20200701-pages-meta-history6.xml-p9082210p9082339.7z.txt2020-07-09 15:11 94
[TXT]md5sums-dewiki-20200701-pages-meta-history6.xml-p9082210p9082339.bz2.txt2020-07-09 02:38 95
[TXT]md5sums-dewiki-20200701-pages-meta-history6.xml-p9082340p9082591.7z.txt2020-07-09 15:11 94
[TXT]md5sums-dewiki-20200701-pages-meta-history6.xml-p9082340p9082591.bz2.txt2020-07-09 02:43 95
[TXT]md5sums-dewiki-20200701-pages-meta-history6.xml-p9082592p9235861.7z.txt2020-07-09 15:11 94
[TXT]md5sums-dewiki-20200701-pages-meta-history6.xml-p9082592p9235861.bz2.txt2020-07-09 02:47 95
[TXT]md5sums-dewiki-20200701-pages-meta-history6.xml-p9235862p9430702.7z.txt2020-07-09 15:12 94
[TXT]md5sums-dewiki-20200701-pages-meta-history6.xml-p9235862p9430702.bz2.txt2020-07-09 02:49 95
[TXT]md5sums-dewiki-20200701-pages-meta-history6.xml-p9430703p9574477.7z.txt2020-07-09 15:12 94
[TXT]md5sums-dewiki-20200701-pages-meta-history6.xml-p9430703p9574477.bz2.txt2020-07-09 02:51 95
[TXT]md5sums-dewiki-20200701-pages-meta-history6.xml-p9574478p9651705.7z.txt2020-07-09 15:12 94
[TXT]md5sums-dewiki-20200701-pages-meta-history6.xml-p9574478p9651705.bz2.txt2020-07-09 02:53 95
[TXT]md5sums-dewiki-20200701-pages-meta-history6.xml-p9651706p9740496.7z.txt2020-07-09 15:12 94
[TXT]md5sums-dewiki-20200701-pages-meta-history6.xml-p9651706p9740496.bz2.txt2020-07-09 02:55 95
[TXT]md5sums-dewiki-20200701-pages-meta-history6.xml-p9740497p9759809.7z.txt2020-07-09 15:12 94
[TXT]md5sums-dewiki-20200701-pages-meta-history6.xml-p9740497p9759809.bz2.txt2020-07-09 02:56 95
[TXT]md5sums-dewiki-20200701-pages-meta-history6.xml-p9759810p9908531.7z.txt2020-07-09 15:13 94
[TXT]md5sums-dewiki-20200701-pages-meta-history6.xml-p9759810p9908531.bz2.txt2020-07-09 02:58 95
[TXT]md5sums-dewiki-20200701-pages-meta-history6.xml-p9908532p10007090.7z.txt2020-07-09 15:13 95
[TXT]md5sums-dewiki-20200701-pages-meta-history6.xml-p9908532p10007090.bz2.txt2020-07-09 03:00 96
[TXT]md5sums-dewiki-20200701-pages-meta-history6.xml-p10007091p10157366.7z.txt2020-07-09 15:13 96
[TXT]md5sums-dewiki-20200701-pages-meta-history6.xml-p10007091p10157366.bz2.txt2020-07-09 03:02 97
[TXT]md5sums-dewiki-20200701-pages-meta-history6.xml-p10157367p10261596.7z.txt2020-07-09 15:13 96
[TXT]md5sums-dewiki-20200701-pages-meta-history6.xml-p10157367p10261596.bz2.txt2020-07-09 03:04 97
[TXT]md5sums-dewiki-20200701-pages-meta-history6.xml-p10261597p10453597.7z.txt2020-07-09 15:14 96
[TXT]md5sums-dewiki-20200701-pages-meta-history6.xml-p10261597p10453597.bz2.txt2020-07-09 03:07 97
[TXT]md5sums-dewiki-20200701-pages-meta-history6.xml-p10453598p10684216.7z.txt2020-07-09 15:14 96
[TXT]md5sums-dewiki-20200701-pages-meta-history6.xml-p10453598p10684216.bz2.txt2020-07-09 03:08 97
[TXT]md5sums-dewiki-20200701-pages-meta-history6.xml-p10684217p10907502.7z.txt2020-07-09 15:14 96
[TXT]md5sums-dewiki-20200701-pages-meta-history6.xml-p10684217p10907502.bz2.txt2020-07-09 03:10 97
[TXT]md5sums-dewiki-20200701-pages-meta-history6.xml-p10907503p11154155.7z.txt2020-07-09 15:14 96
[TXT]md5sums-dewiki-20200701-pages-meta-history6.xml-p10907503p11154155.bz2.txt2020-07-09 03:11 97
[TXT]md5sums-dewiki-20200701-pages-meta-history6.xml-p11154156p11256311.7z.txt2020-07-09 15:15 96
[TXT]md5sums-dewiki-20200701-pages-meta-history6.xml-p11154156p11256311.bz2.txt2020-07-09 03:13 97
[TXT]md5sums-dewiki-20200701-pages-meta-history6.xml-p11256312p11361661.7z.txt2020-07-09 15:15 96
[TXT]md5sums-dewiki-20200701-pages-meta-history6.xml-p11256312p11361661.bz2.txt2020-07-09 03:14 97
[TXT]md5sums-dewiki-20200701-protected_titles.sql.gz.txt2020-07-02 15:02 74
[TXT]md5sums-dewiki-20200701-redirect.sql.gz.txt2020-07-02 17:11 66
[TXT]md5sums-dewiki-20200701-site_stats.sql.gz.txt2020-07-02 16:40 68
[TXT]md5sums-dewiki-20200701-siteinfo-namespaces.json.gz.txt2020-07-06 05:39 78
[TXT]md5sums-dewiki-20200701-sites.sql.gz.txt2020-07-02 15:06 63
[TXT]md5sums-dewiki-20200701-stub-articles.xml.gz.txt2020-07-02 13:57 71
[TXT]md5sums-dewiki-20200701-stub-articles1.xml.gz.txt2020-07-02 13:02 72
[TXT]md5sums-dewiki-20200701-stub-articles2.xml.gz.txt2020-07-02 13:02 72
[TXT]md5sums-dewiki-20200701-stub-articles3.xml.gz.txt2020-07-02 13:02 72
[TXT]md5sums-dewiki-20200701-stub-articles4.xml.gz.txt2020-07-02 13:02 72
[TXT]md5sums-dewiki-20200701-stub-articles5.xml.gz.txt2020-07-02 13:03 72
[TXT]md5sums-dewiki-20200701-stub-articles6.xml.gz.txt2020-07-02 13:03 72
[TXT]md5sums-dewiki-20200701-stub-meta-current.xml.gz.txt2020-07-02 13:56 75
[TXT]md5sums-dewiki-20200701-stub-meta-current1.xml.gz.txt2020-07-02 13:01 76
[TXT]md5sums-dewiki-20200701-stub-meta-current2.xml.gz.txt2020-07-02 13:01 76
[TXT]md5sums-dewiki-20200701-stub-meta-current3.xml.gz.txt2020-07-02 13:01 76
[TXT]md5sums-dewiki-20200701-stub-meta-current4.xml.gz.txt2020-07-02 13:01 76
[TXT]md5sums-dewiki-20200701-stub-meta-current5.xml.gz.txt2020-07-02 13:02 76
[TXT]md5sums-dewiki-20200701-stub-meta-current6.xml.gz.txt2020-07-02 13:02 76
[TXT]md5sums-dewiki-20200701-stub-meta-history.xml.gz.txt2020-07-02 13:44 75
[TXT]md5sums-dewiki-20200701-stub-meta-history1.xml.gz.txt2020-07-02 12:35 76
[TXT]md5sums-dewiki-20200701-stub-meta-history2.xml.gz.txt2020-07-02 12:41 76
[TXT]md5sums-dewiki-20200701-stub-meta-history3.xml.gz.txt2020-07-02 12:48 76
[TXT]md5sums-dewiki-20200701-stub-meta-history4.xml.gz.txt2020-07-02 12:54 76
[TXT]md5sums-dewiki-20200701-stub-meta-history5.xml.gz.txt2020-07-02 12:57 76
[TXT]md5sums-dewiki-20200701-stub-meta-history6.xml.gz.txt2020-07-02 13:00 76
[TXT]md5sums-dewiki-20200701-templatelinks.sql.gz.txt2020-07-02 14:14 71
[TXT]md5sums-dewiki-20200701-user_former_groups.sql.gz.txt2020-07-02 15:20 76
[TXT]md5sums-dewiki-20200701-user_groups.sql.gz.txt2020-07-02 15:03 69
[TXT]md5sums-dewiki-20200701-wbc_entity_usage.sql.gz.txt2020-07-02 16:43 74
[   ]pagerangeinfo.json2020-07-06 15:58 4.8K
[   ]report.json2020-07-09 15:17 69K
[TXT]sha1sums-dewiki-20200701-abstract.xml.gz.txt2020-07-06 12:14 74
[TXT]sha1sums-dewiki-20200701-abstract1.xml.gz.txt2020-07-06 12:13 75
[TXT]sha1sums-dewiki-20200701-abstract2.xml.gz.txt2020-07-06 12:13 75
[TXT]sha1sums-dewiki-20200701-abstract3.xml.gz.txt2020-07-06 12:13 75
[TXT]sha1sums-dewiki-20200701-abstract4.xml.gz.txt2020-07-06 12:13 75
[TXT]sha1sums-dewiki-20200701-abstract5.xml.gz.txt2020-07-06 12:13 75
[TXT]sha1sums-dewiki-20200701-abstract6.xml.gz.txt2020-07-06 12:13 75
[TXT]sha1sums-dewiki-20200701-all-titles-in-ns0.gz.txt2020-07-06 05:40 79
[TXT]sha1sums-dewiki-20200701-all-titles.gz.txt2020-07-06 05:41 72
[TXT]sha1sums-dewiki-20200701-babel.sql.gz.txt2020-07-02 17:01 71
[TXT]sha1sums-dewiki-20200701-category.sql.gz.txt2020-07-02 14:05 74
[TXT]sha1sums-dewiki-20200701-categorylinks.sql.gz.txt2020-07-02 15:12 79
[TXT]sha1sums-dewiki-20200701-change_tag.sql.gz.txt2020-07-02 16:47 76
[TXT]sha1sums-dewiki-20200701-change_tag_def.sql.gz.txt2020-07-02 14:04 80
[TXT]sha1sums-dewiki-20200701-externallinks.sql.gz.txt2020-07-02 17:07 79
[TXT]sha1sums-dewiki-20200701-flaggedimages.sql.gz.txt2020-07-02 16:39 79
[TXT]sha1sums-dewiki-20200701-flaggedpage_config.sql.gz.txt2020-07-02 16:43 84
[TXT]sha1sums-dewiki-20200701-flaggedpage_pending.sql.gz.txt2020-07-02 14:07 85
[TXT]sha1sums-dewiki-20200701-flaggedpages.sql.gz.txt2020-07-02 15:08 78
[TXT]sha1sums-dewiki-20200701-flaggedrevs.sql.gz.txt2020-07-02 17:00 77
[TXT]sha1sums-dewiki-20200701-flaggedrevs_promote.sql.gz.txt2020-07-02 17:09 85
[TXT]sha1sums-dewiki-20200701-flaggedrevs_statistics.sql.gz.txt2020-07-02 14:11 88
[TXT]sha1sums-dewiki-20200701-flaggedrevs_tracking.sql.gz.txt2020-07-02 17:13 86
[TXT]sha1sums-dewiki-20200701-flaggedtemplates.sql.gz.txt2020-07-02 15:01 82
[TXT]sha1sums-dewiki-20200701-geo_tags.sql.gz.txt2020-07-02 14:09 74
[TXT]sha1sums-dewiki-20200701-image.sql.gz.txt2020-07-02 15:05 71
[TXT]sha1sums-dewiki-20200701-imagelinks.sql.gz.txt2020-07-02 16:50 76
[TXT]sha1sums-dewiki-20200701-iwlinks.sql.gz.txt2020-07-02 17:00 73
[TXT]sha1sums-dewiki-20200701-langlinks.sql.gz.txt2020-07-02 16:41 75
[TXT]sha1sums-dewiki-20200701-page.sql.gz.txt2020-07-02 16:45 70
[TXT]sha1sums-dewiki-20200701-page_props.sql.gz.txt2020-07-02 16:52 76
[TXT]sha1sums-dewiki-20200701-page_restrictions.sql.gz.txt2020-07-02 16:48 83
[TXT]sha1sums-dewiki-20200701-pagelinks.sql.gz.txt2020-07-02 15:19 75
[TXT]sha1sums-dewiki-20200701-pages-articles-multistream-index.txt.bz2.txt2020-07-03 15:29 99
[TXT]sha1sums-dewiki-20200701-pages-articles-multistream-index1.txt-p1p262468.bz2.txt2020-07-03 14:53 110
[TXT]sha1sums-dewiki-20200701-pages-articles-multistream-index2.txt-p262469p1095940.bz2.txt2020-07-03 14:54 116
[TXT]sha1sums-dewiki-20200701-pages-articles-multistream-index3.txt-p1095941p2595940.bz2.txt2020-07-03 14:55 117
[TXT]sha1sums-dewiki-20200701-pages-articles-multistream-index3.txt-p2595941p2920048.bz2.txt2020-07-03 14:56 117
[TXT]sha1sums-dewiki-20200701-pages-articles-multistream-index4.txt-p2920049p4420048.bz2.txt2020-07-03 14:56 117
[TXT]sha1sums-dewiki-20200701-pages-articles-multistream-index4.txt-p4420049p5466275.bz2.txt2020-07-03 14:57 117
[TXT]sha1sums-dewiki-20200701-pages-articles-multistream-index5.txt-p5466276p6966275.bz2.txt2020-07-03 14:58 117
[TXT]sha1sums-dewiki-20200701-pages-articles-multistream-index5.txt-p6966276p8342168.bz2.txt2020-07-03 15:00 117
[TXT]sha1sums-dewiki-20200701-pages-articles-multistream-index6.txt-p8342169p9842168.bz2.txt2020-07-03 15:00 117
[TXT]sha1sums-dewiki-20200701-pages-articles-multistream-index6.txt-p9842169p11342168.bz2.txt2020-07-03 15:01 118
[TXT]sha1sums-dewiki-20200701-pages-articles-multistream-index6.txt-p11342169p11361661.bz2.txt2020-07-03 15:01 119
[TXT]sha1sums-dewiki-20200701-pages-articles-multistream.xml.bz2.txt2020-07-03 15:29 93
[TXT]sha1sums-dewiki-20200701-pages-articles-multistream1.xml-p1p262468.bz2.txt2020-07-03 14:53 104
[TXT]sha1sums-dewiki-20200701-pages-articles-multistream2.xml-p262469p1095940.bz2.txt2020-07-03 14:54 110
[TXT]sha1sums-dewiki-20200701-pages-articles-multistream3.xml-p1095941p2595940.bz2.txt2020-07-03 14:55 111
[TXT]sha1sums-dewiki-20200701-pages-articles-multistream3.xml-p2595941p2920048.bz2.txt2020-07-03 14:56 111
[TXT]sha1sums-dewiki-20200701-pages-articles-multistream4.xml-p2920049p4420048.bz2.txt2020-07-03 14:56 111
[TXT]sha1sums-dewiki-20200701-pages-articles-multistream4.xml-p4420049p5466275.bz2.txt2020-07-03 14:57 111
[TXT]sha1sums-dewiki-20200701-pages-articles-multistream5.xml-p5466276p6966275.bz2.txt2020-07-03 14:58 111
[TXT]sha1sums-dewiki-20200701-pages-articles-multistream5.xml-p6966276p8342168.bz2.txt2020-07-03 15:00 111
[TXT]sha1sums-dewiki-20200701-pages-articles-multistream6.xml-p8342169p9842168.bz2.txt2020-07-03 15:00 111
[TXT]sha1sums-dewiki-20200701-pages-articles-multistream6.xml-p9842169p11342168.bz2.txt2020-07-03 15:01 112
[TXT]sha1sums-dewiki-20200701-pages-articles-multistream6.xml-p11342169p11361661.bz2.txt2020-07-03 15:01 113
[TXT]sha1sums-dewiki-20200701-pages-articles.xml.bz2.txt2020-07-03 03:50 81
[TXT]sha1sums-dewiki-20200701-pages-articles1.xml-p1p262468.bz2.txt2020-07-03 01:49 92
[TXT]sha1sums-dewiki-20200701-pages-articles2.xml-p262469p1095940.bz2.txt2020-07-03 01:49 98
[TXT]sha1sums-dewiki-20200701-pages-articles3.xml-p1095941p2595940.bz2.txt2020-07-03 01:50 99
[TXT]sha1sums-dewiki-20200701-pages-articles3.xml-p2595941p2920048.bz2.txt2020-07-03 01:51 99
[TXT]sha1sums-dewiki-20200701-pages-articles4.xml-p2920049p4420048.bz2.txt2020-07-03 01:52 99
[TXT]sha1sums-dewiki-20200701-pages-articles4.xml-p4420049p5466275.bz2.txt2020-07-03 01:52 99
[TXT]sha1sums-dewiki-20200701-pages-articles5.xml-p5466276p6966275.bz2.txt2020-07-03 01:53 99
[TXT]sha1sums-dewiki-20200701-pages-articles5.xml-p6966276p8342168.bz2.txt2020-07-03 01:55 99
[TXT]sha1sums-dewiki-20200701-pages-articles6.xml-p8342169p9842168.bz2.txt2020-07-03 01:56 99
[TXT]sha1sums-dewiki-20200701-pages-articles6.xml-p9842169p11342168.bz2.txt2020-07-03 01:56 100
[TXT]sha1sums-dewiki-20200701-pages-articles6.xml-p11342169p11361661.bz2.txt2020-07-03 01:56 101
[TXT]sha1sums-dewiki-20200701-pages-logging.xml.gz.txt2020-07-06 13:35 79
[TXT]sha1sums-dewiki-20200701-pages-logging1.xml.gz.txt2020-07-06 13:24 80
[TXT]sha1sums-dewiki-20200701-pages-logging2.xml.gz.txt2020-07-06 13:24 80
[TXT]sha1sums-dewiki-20200701-pages-logging3.xml.gz.txt2020-07-06 13:25 80
[TXT]sha1sums-dewiki-20200701-pages-logging4.xml.gz.txt2020-07-06 13:26 80
[TXT]sha1sums-dewiki-20200701-pages-logging5.xml.gz.txt2020-07-06 13:26 80
[TXT]sha1sums-dewiki-20200701-pages-logging6.xml.gz.txt2020-07-06 13:28 80
[TXT]sha1sums-dewiki-20200701-pages-meta-current.xml.bz2.txt2020-07-04 23:42 85
[TXT]sha1sums-dewiki-20200701-pages-meta-current1.xml-p1p262468.bz2.txt2020-07-04 21:37 96
[TXT]sha1sums-dewiki-20200701-pages-meta-current2.xml-p262469p1095940.bz2.txt2020-07-04 21:39 102
[TXT]sha1sums-dewiki-20200701-pages-meta-current3.xml-p1095941p2595940.bz2.txt2020-07-04 21:42 103
[TXT]sha1sums-dewiki-20200701-pages-meta-current3.xml-p2595941p2920048.bz2.txt2020-07-04 21:42 103
[TXT]sha1sums-dewiki-20200701-pages-meta-current4.xml-p2920049p4420048.bz2.txt2020-07-04 21:45 103
[TXT]sha1sums-dewiki-20200701-pages-meta-current4.xml-p4420049p5466275.bz2.txt2020-07-04 21:45 103
[TXT]sha1sums-dewiki-20200701-pages-meta-current5.xml-p5466276p6966275.bz2.txt2020-07-04 21:46 103
[TXT]sha1sums-dewiki-20200701-pages-meta-current5.xml-p6966276p8342168.bz2.txt2020-07-04 21:47 103
[TXT]sha1sums-dewiki-20200701-pages-meta-current6.xml-p8342169p9842168.bz2.txt2020-07-04 21:48 103
[TXT]sha1sums-dewiki-20200701-pages-meta-current6.xml-p9842169p11342168.bz2.txt2020-07-04 21:49 104
[TXT]sha1sums-dewiki-20200701-pages-meta-current6.xml-p11342169p11361661.bz2.txt2020-07-04 21:49 105
[TXT]sha1sums-dewiki-20200701-pages-meta-history1.xml-p1p1644.7z.txt2020-07-09 14:51 93
[TXT]sha1sums-dewiki-20200701-pages-meta-history1.xml-p1p1644.bz2.txt2020-07-08 17:27 94
[TXT]sha1sums-dewiki-20200701-pages-meta-history1.xml-p1645p3502.7z.txt2020-07-09 14:51 96
[TXT]sha1sums-dewiki-20200701-pages-meta-history1.xml-p1645p3502.bz2.txt2020-07-08 17:30 97
[TXT]sha1sums-dewiki-20200701-pages-meta-history1.xml-p3503p5226.7z.txt2020-07-09 14:51 96
[TXT]sha1sums-dewiki-20200701-pages-meta-history1.xml-p3503p5226.bz2.txt2020-07-08 17:32 97
[TXT]sha1sums-dewiki-20200701-pages-meta-history1.xml-p5227p6320.7z.txt2020-07-09 14:51 96
[TXT]sha1sums-dewiki-20200701-pages-meta-history1.xml-p5227p6320.bz2.txt2020-07-08 17:36 97
[TXT]sha1sums-dewiki-20200701-pages-meta-history1.xml-p6321p9402.7z.txt2020-07-09 14:51 96
[TXT]sha1sums-dewiki-20200701-pages-meta-history1.xml-p6321p9402.bz2.txt2020-07-08 17:41 97
[TXT]sha1sums-dewiki-20200701-pages-meta-history1.xml-p9403p12387.7z.txt2020-07-09 14:51 97
[TXT]sha1sums-dewiki-20200701-pages-meta-history1.xml-p9403p12387.bz2.txt2020-07-08 17:43 98
[TXT]sha1sums-dewiki-20200701-pages-meta-history1.xml-p12388p15360.7z.txt2020-07-09 14:51 98
[TXT]sha1sums-dewiki-20200701-pages-meta-history1.xml-p12388p15360.bz2.txt2020-07-08 17:46 99
[TXT]sha1sums-dewiki-20200701-pages-meta-history1.xml-p15361p18411.7z.txt2020-07-09 14:52 98
[TXT]sha1sums-dewiki-20200701-pages-meta-history1.xml-p15361p18411.bz2.txt2020-07-08 17:48 99
[TXT]sha1sums-dewiki-20200701-pages-meta-history1.xml-p18412p22560.7z.txt2020-07-09 14:52 98
[TXT]sha1sums-dewiki-20200701-pages-meta-history1.xml-p18412p22560.bz2.txt2020-07-08 17:52 99
[TXT]sha1sums-dewiki-20200701-pages-meta-history1.xml-p22561p29967.7z.txt2020-07-09 14:52 98
[TXT]sha1sums-dewiki-20200701-pages-meta-history1.xml-p22561p29967.bz2.txt2020-07-08 17:56 99
[TXT]sha1sums-dewiki-20200701-pages-meta-history1.xml-p29968p35360.7z.txt2020-07-09 14:52 98
[TXT]sha1sums-dewiki-20200701-pages-meta-history1.xml-p29968p35360.bz2.txt2020-07-08 18:02 99
[TXT]sha1sums-dewiki-20200701-pages-meta-history1.xml-p35361p43797.7z.txt2020-07-09 14:52 98
[TXT]sha1sums-dewiki-20200701-pages-meta-history1.xml-p35361p43797.bz2.txt2020-07-08 18:09 99
[TXT]sha1sums-dewiki-20200701-pages-meta-history1.xml-p43798p51751.7z.txt2020-07-09 14:52 98
[TXT]sha1sums-dewiki-20200701-pages-meta-history1.xml-p43798p51751.bz2.txt2020-07-08 18:14 99
[TXT]sha1sums-dewiki-20200701-pages-meta-history1.xml-p51752p60775.7z.txt2020-07-09 14:52 98
[TXT]sha1sums-dewiki-20200701-pages-meta-history1.xml-p51752p60775.bz2.txt2020-07-08 18:19 99
[TXT]sha1sums-dewiki-20200701-pages-meta-history1.xml-p60776p72800.7z.txt2020-07-09 14:52 98
[TXT]sha1sums-dewiki-20200701-pages-meta-history1.xml-p60776p72800.bz2.txt2020-07-08 18:25 99
[TXT]sha1sums-dewiki-20200701-pages-meta-history1.xml-p72801p85076.7z.txt2020-07-09 14:53 98
[TXT]sha1sums-dewiki-20200701-pages-meta-history1.xml-p72801p85076.bz2.txt2020-07-08 18:29 99
[TXT]sha1sums-dewiki-20200701-pages-meta-history1.xml-p85077p97725.7z.txt2020-07-09 14:53 98
[TXT]sha1sums-dewiki-20200701-pages-meta-history1.xml-p85077p97725.bz2.txt2020-07-08 18:33 99
[TXT]sha1sums-dewiki-20200701-pages-meta-history1.xml-p97726p112426.7z.txt2020-07-09 14:53 99
[TXT]sha1sums-dewiki-20200701-pages-meta-history1.xml-p97726p112426.bz2.txt2020-07-08 18:39 100
[TXT]sha1sums-dewiki-20200701-pages-meta-history1.xml-p112427p128540.7z.txt2020-07-09 14:53 100
[TXT]sha1sums-dewiki-20200701-pages-meta-history1.xml-p112427p128540.bz2.txt2020-07-08 18:46 101
[TXT]sha1sums-dewiki-20200701-pages-meta-history1.xml-p128541p143388.7z.txt2020-07-09 14:53 100
[TXT]sha1sums-dewiki-20200701-pages-meta-history1.xml-p128541p143388.bz2.txt2020-07-08 18:49 101
[TXT]sha1sums-dewiki-20200701-pages-meta-history1.xml-p143389p161120.7z.txt2020-07-09 14:53 100
[TXT]sha1sums-dewiki-20200701-pages-meta-history1.xml-p143389p161120.bz2.txt2020-07-08 18:53 101
[TXT]sha1sums-dewiki-20200701-pages-meta-history1.xml-p161121p179221.7z.txt2020-07-09 14:53 100
[TXT]sha1sums-dewiki-20200701-pages-meta-history1.xml-p161121p179221.bz2.txt2020-07-08 18:58 101
[TXT]sha1sums-dewiki-20200701-pages-meta-history1.xml-p179222p199922.7z.txt2020-07-09 14:53 100
[TXT]sha1sums-dewiki-20200701-pages-meta-history1.xml-p179222p199922.bz2.txt2020-07-08 19:04 101
[TXT]sha1sums-dewiki-20200701-pages-meta-history1.xml-p199923p221365.7z.txt2020-07-09 14:54 100
[TXT]sha1sums-dewiki-20200701-pages-meta-history1.xml-p199923p221365.bz2.txt2020-07-08 19:14 101
[TXT]sha1sums-dewiki-20200701-pages-meta-history1.xml-p221366p245994.7z.txt2020-07-09 14:54 100
[TXT]sha1sums-dewiki-20200701-pages-meta-history1.xml-p221366p245994.bz2.txt2020-07-08 19:21 101
[TXT]sha1sums-dewiki-20200701-pages-meta-history1.xml-p245995p262468.7z.txt2020-07-09 14:54 100
[TXT]sha1sums-dewiki-20200701-pages-meta-history1.xml-p245995p262468.bz2.txt2020-07-08 19:23 101
[TXT]sha1sums-dewiki-20200701-pages-meta-history2.xml-p262469p287677.7z.txt2020-07-09 14:54 100
[TXT]sha1sums-dewiki-20200701-pages-meta-history2.xml-p262469p287677.bz2.txt2020-07-08 19:27 101
[TXT]sha1sums-dewiki-20200701-pages-meta-history2.xml-p287678p313326.7z.txt2020-07-09 14:54 100
[TXT]sha1sums-dewiki-20200701-pages-meta-history2.xml-p287678p313326.bz2.txt2020-07-08 19:31 101
[TXT]sha1sums-dewiki-20200701-pages-meta-history2.xml-p313327p340715.7z.txt2020-07-09 14:54 100
[TXT]sha1sums-dewiki-20200701-pages-meta-history2.xml-p313327p340715.bz2.txt2020-07-08 19:38 101
[TXT]sha1sums-dewiki-20200701-pages-meta-history2.xml-p340716p371207.7z.txt2020-07-09 14:54 100
[TXT]sha1sums-dewiki-20200701-pages-meta-history2.xml-p340716p371207.bz2.txt2020-07-08 19:41 101
[TXT]sha1sums-dewiki-20200701-pages-meta-history2.xml-p371208p403097.7z.txt2020-07-09 14:54 100
[TXT]sha1sums-dewiki-20200701-pages-meta-history2.xml-p371208p403097.bz2.txt2020-07-08 19:45 101
[TXT]sha1sums-dewiki-20200701-pages-meta-history2.xml-p403098p439322.7z.txt2020-07-09 14:55 100
[TXT]sha1sums-dewiki-20200701-pages-meta-history2.xml-p403098p439322.bz2.txt2020-07-08 19:48 101
[TXT]sha1sums-dewiki-20200701-pages-meta-history2.xml-p439323p468937.7z.txt2020-07-09 14:55 100
[TXT]sha1sums-dewiki-20200701-pages-meta-history2.xml-p439323p468937.bz2.txt2020-07-08 19:53 101
[TXT]sha1sums-dewiki-20200701-pages-meta-history2.xml-p468938p499400.7z.txt2020-07-09 14:55 100
[TXT]sha1sums-dewiki-20200701-pages-meta-history2.xml-p468938p499400.bz2.txt2020-07-08 19:54 101
[TXT]sha1sums-dewiki-20200701-pages-meta-history2.xml-p499401p539462.7z.txt2020-07-09 14:55 100
[TXT]sha1sums-dewiki-20200701-pages-meta-history2.xml-p499401p539462.bz2.txt2020-07-08 19:56 101
[TXT]sha1sums-dewiki-20200701-pages-meta-history2.xml-p539463p581885.7z.txt2020-07-09 14:55 100
[TXT]sha1sums-dewiki-20200701-pages-meta-history2.xml-p539463p581885.bz2.txt2020-07-08 19:59 101
[TXT]sha1sums-dewiki-20200701-pages-meta-history2.xml-p581886p621133.7z.txt2020-07-09 14:55 100
[TXT]sha1sums-dewiki-20200701-pages-meta-history2.xml-p581886p621133.bz2.txt2020-07-08 20:08 101
[TXT]sha1sums-dewiki-20200701-pages-meta-history2.xml-p621134p666314.7z.txt2020-07-09 14:55 100
[TXT]sha1sums-dewiki-20200701-pages-meta-history2.xml-p621134p666314.bz2.txt2020-07-08 20:13 101
[TXT]sha1sums-dewiki-20200701-pages-meta-history2.xml-p666315p700139.7z.txt2020-07-09 14:56 100
[TXT]sha1sums-dewiki-20200701-pages-meta-history2.xml-p666315p700139.bz2.txt2020-07-08 20:22 101
[TXT]sha1sums-dewiki-20200701-pages-meta-history2.xml-p700140p738575.7z.txt2020-07-09 14:56 100
[TXT]sha1sums-dewiki-20200701-pages-meta-history2.xml-p700140p738575.bz2.txt2020-07-08 20:27 101
[TXT]sha1sums-dewiki-20200701-pages-meta-history2.xml-p738576p783302.7z.txt2020-07-09 14:56 100
[TXT]sha1sums-dewiki-20200701-pages-meta-history2.xml-p738576p783302.bz2.txt2020-07-08 20:33 101
[TXT]sha1sums-dewiki-20200701-pages-meta-history2.xml-p783303p826430.7z.txt2020-07-09 14:56 100
[TXT]sha1sums-dewiki-20200701-pages-meta-history2.xml-p783303p826430.bz2.txt2020-07-08 20:40 101
[TXT]sha1sums-dewiki-20200701-pages-meta-history2.xml-p826431p869423.7z.txt2020-07-09 14:57 100
[TXT]sha1sums-dewiki-20200701-pages-meta-history2.xml-p826431p869423.bz2.txt2020-07-08 20:45 101
[TXT]sha1sums-dewiki-20200701-pages-meta-history2.xml-p869424p919966.7z.txt2020-07-09 14:57 100
[TXT]sha1sums-dewiki-20200701-pages-meta-history2.xml-p869424p919966.bz2.txt2020-07-08 20:49 101
[TXT]sha1sums-dewiki-20200701-pages-meta-history2.xml-p919967p973180.7z.txt2020-07-09 14:57 100
[TXT]sha1sums-dewiki-20200701-pages-meta-history2.xml-p919967p973180.bz2.txt2020-07-08 20:50 101
[TXT]sha1sums-dewiki-20200701-pages-meta-history2.xml-p973181p1022031.7z.txt2020-07-09 14:57 101
[TXT]sha1sums-dewiki-20200701-pages-meta-history2.xml-p973181p1022031.bz2.txt2020-07-08 20:53 102
[TXT]sha1sums-dewiki-20200701-pages-meta-history2.xml-p1022032p1079412.7z.txt2020-07-09 14:57 102
[TXT]sha1sums-dewiki-20200701-pages-meta-history2.xml-p1022032p1079412.bz2.txt2020-07-08 20:56 103
[TXT]sha1sums-dewiki-20200701-pages-meta-history2.xml-p1079413p1095940.7z.txt2020-07-09 14:57 102
[TXT]sha1sums-dewiki-20200701-pages-meta-history2.xml-p1079413p1095940.bz2.txt2020-07-08 20:57 103
[TXT]sha1sums-dewiki-20200701-pages-meta-history3.xml-p1095941p1155652.7z.txt2020-07-09 14:58 102
[TXT]sha1sums-dewiki-20200701-pages-meta-history3.xml-p1095941p1155652.bz2.txt2020-07-08 21:00 103
[TXT]sha1sums-dewiki-20200701-pages-meta-history3.xml-p1155653p1217898.7z.txt2020-07-09 14:58 102
[TXT]sha1sums-dewiki-20200701-pages-meta-history3.xml-p1155653p1217898.bz2.txt2020-07-08 21:05 103
[TXT]sha1sums-dewiki-20200701-pages-meta-history3.xml-p1217899p1277065.7z.txt2020-07-09 14:58 102
[TXT]sha1sums-dewiki-20200701-pages-meta-history3.xml-p1217899p1277065.bz2.txt2020-07-08 21:10 103
[TXT]sha1sums-dewiki-20200701-pages-meta-history3.xml-p1277066p1341772.7z.txt2020-07-09 14:58 102
[TXT]sha1sums-dewiki-20200701-pages-meta-history3.xml-p1277066p1341772.bz2.txt2020-07-08 21:16 103
[TXT]sha1sums-dewiki-20200701-pages-meta-history3.xml-p1341773p1405364.7z.txt2020-07-09 14:58 102
[TXT]sha1sums-dewiki-20200701-pages-meta-history3.xml-p1341773p1405364.bz2.txt2020-07-08 21:24 103
[TXT]sha1sums-dewiki-20200701-pages-meta-history3.xml-p1405365p1475749.7z.txt2020-07-09 14:58 102
[TXT]sha1sums-dewiki-20200701-pages-meta-history3.xml-p1405365p1475749.bz2.txt2020-07-08 21:32 103
[TXT]sha1sums-dewiki-20200701-pages-meta-history3.xml-p1475750p1548492.7z.txt2020-07-09 14:58 102
[TXT]sha1sums-dewiki-20200701-pages-meta-history3.xml-p1475750p1548492.bz2.txt2020-07-08 21:41 103
[TXT]sha1sums-dewiki-20200701-pages-meta-history3.xml-p1548493p1624266.7z.txt2020-07-09 14:59 102
[TXT]sha1sums-dewiki-20200701-pages-meta-history3.xml-p1548493p1624266.bz2.txt2020-07-08 21:45 103
[TXT]sha1sums-dewiki-20200701-pages-meta-history3.xml-p1624267p1692929.7z.txt2020-07-09 14:59 102
[TXT]sha1sums-dewiki-20200701-pages-meta-history3.xml-p1624267p1692929.bz2.txt2020-07-08 21:49 103
[TXT]sha1sums-dewiki-20200701-pages-meta-history3.xml-p1692930p1764358.7z.txt2020-07-09 14:59 102
[TXT]sha1sums-dewiki-20200701-pages-meta-history3.xml-p1692930p1764358.bz2.txt2020-07-08 21:54 103
[TXT]sha1sums-dewiki-20200701-pages-meta-history3.xml-p1764359p1845726.7z.txt2020-07-09 14:59 102
[TXT]sha1sums-dewiki-20200701-pages-meta-history3.xml-p1764359p1845726.bz2.txt2020-07-08 22:01 103
[TXT]sha1sums-dewiki-20200701-pages-meta-history3.xml-p1845727p1927614.7z.txt2020-07-09 14:59 102
[TXT]sha1sums-dewiki-20200701-pages-meta-history3.xml-p1845727p1927614.bz2.txt2020-07-08 22:09 103
[TXT]sha1sums-dewiki-20200701-pages-meta-history3.xml-p1927615p2033979.7z.txt2020-07-09 14:59 102
[TXT]sha1sums-dewiki-20200701-pages-meta-history3.xml-p1927615p2033979.bz2.txt2020-07-08 22:14 103
[TXT]sha1sums-dewiki-20200701-pages-meta-history3.xml-p2033980p2133625.7z.txt2020-07-09 15:00 102
[TXT]sha1sums-dewiki-20200701-pages-meta-history3.xml-p2033980p2133625.bz2.txt2020-07-08 22:21 103
[TXT]sha1sums-dewiki-20200701-pages-meta-history3.xml-p2133626p2236670.7z.txt2020-07-09 15:00 102
[TXT]sha1sums-dewiki-20200701-pages-meta-history3.xml-p2133626p2236670.bz2.txt2020-07-08 22:27 103
[TXT]sha1sums-dewiki-20200701-pages-meta-history3.xml-p2236671p2343325.7z.txt2020-07-09 15:00 102
[TXT]sha1sums-dewiki-20200701-pages-meta-history3.xml-p2236671p2343325.bz2.txt2020-07-08 22:34 103
[TXT]sha1sums-dewiki-20200701-pages-meta-history3.xml-p2343326p2464919.7z.txt2020-07-09 15:00 102
[TXT]sha1sums-dewiki-20200701-pages-meta-history3.xml-p2343326p2464919.bz2.txt2020-07-08 22:40 103
[TXT]sha1sums-dewiki-20200701-pages-meta-history3.xml-p2464920p2587577.7z.txt2020-07-09 15:00 102
[TXT]sha1sums-dewiki-20200701-pages-meta-history3.xml-p2464920p2587577.bz2.txt2020-07-08 22:46 103
[TXT]sha1sums-dewiki-20200701-pages-meta-history3.xml-p2587578p2671548.7z.txt2020-07-09 15:00 102
[TXT]sha1sums-dewiki-20200701-pages-meta-history3.xml-p2587578p2671548.bz2.txt2020-07-08 22:50 103
[TXT]sha1sums-dewiki-20200701-pages-meta-history3.xml-p2671549p2770759.7z.txt2020-07-09 15:01 102
[TXT]sha1sums-dewiki-20200701-pages-meta-history3.xml-p2671549p2770759.bz2.txt2020-07-08 22:57 103
[TXT]sha1sums-dewiki-20200701-pages-meta-history3.xml-p2770760p2865786.7z.txt2020-07-09 15:01 102
[TXT]sha1sums-dewiki-20200701-pages-meta-history3.xml-p2770760p2865786.bz2.txt2020-07-08 23:04 103
[TXT]sha1sums-dewiki-20200701-pages-meta-history3.xml-p2865787p2920048.7z.txt2020-07-09 15:01 102
[TXT]sha1sums-dewiki-20200701-pages-meta-history3.xml-p2865787p2920048.bz2.txt2020-07-08 23:07 103
[TXT]sha1sums-dewiki-20200701-pages-meta-history4.xml-p2920049p3033857.7z.txt2020-07-09 15:01 102
[TXT]sha1sums-dewiki-20200701-pages-meta-history4.xml-p2920049p3033857.bz2.txt2020-07-08 23:14 103
[TXT]sha1sums-dewiki-20200701-pages-meta-history4.xml-p3033858p3094918.7z.txt2020-07-09 15:01 102
[TXT]sha1sums-dewiki-20200701-pages-meta-history4.xml-p3033858p3094918.bz2.txt2020-07-08 23:23 103
[TXT]sha1sums-dewiki-20200701-pages-meta-history4.xml-p3094919p3200926.7z.txt2020-07-09 15:01 102
[TXT]sha1sums-dewiki-20200701-pages-meta-history4.xml-p3094919p3200926.bz2.txt2020-07-08 23:26 103
[TXT]sha1sums-dewiki-20200701-pages-meta-history4.xml-p3200927p3333572.7z.txt2020-07-09 15:02 102
[TXT]sha1sums-dewiki-20200701-pages-meta-history4.xml-p3200927p3333572.bz2.txt2020-07-08 23:29 103
[TXT]sha1sums-dewiki-20200701-pages-meta-history4.xml-p3333573p3441894.7z.txt2020-07-09 15:02 102
[TXT]sha1sums-dewiki-20200701-pages-meta-history4.xml-p3333573p3441894.bz2.txt2020-07-08 23:32 103
[TXT]sha1sums-dewiki-20200701-pages-meta-history4.xml-p3441895p3557452.7z.txt2020-07-09 15:02 102
[TXT]sha1sums-dewiki-20200701-pages-meta-history4.xml-p3441895p3557452.bz2.txt2020-07-08 23:35 103
[TXT]sha1sums-dewiki-20200701-pages-meta-history4.xml-p3557453p3672250.7z.txt2020-07-09 15:02 102
[TXT]sha1sums-dewiki-20200701-pages-meta-history4.xml-p3557453p3672250.bz2.txt2020-07-08 23:37 103
[TXT]sha1sums-dewiki-20200701-pages-meta-history4.xml-p3672251p3778275.7z.txt2020-07-09 15:02 102
[TXT]sha1sums-dewiki-20200701-pages-meta-history4.xml-p3672251p3778275.bz2.txt2020-07-08 23:40 103
[TXT]sha1sums-dewiki-20200701-pages-meta-history4.xml-p3778276p3886692.7z.txt2020-07-09 15:02 102
[TXT]sha1sums-dewiki-20200701-pages-meta-history4.xml-p3778276p3886692.bz2.txt2020-07-08 23:47 103
[TXT]sha1sums-dewiki-20200701-pages-meta-history4.xml-p3886693p4017456.7z.txt2020-07-09 15:03 102
[TXT]sha1sums-dewiki-20200701-pages-meta-history4.xml-p3886693p4017456.bz2.txt2020-07-08 23:52 103
[TXT]sha1sums-dewiki-20200701-pages-meta-history4.xml-p4017457p4129518.7z.txt2020-07-09 15:03 102
[TXT]sha1sums-dewiki-20200701-pages-meta-history4.xml-p4017457p4129518.bz2.txt2020-07-08 23:59 103
[TXT]sha1sums-dewiki-20200701-pages-meta-history4.xml-p4129519p4251086.7z.txt2020-07-09 15:03 102
[TXT]sha1sums-dewiki-20200701-pages-meta-history4.xml-p4129519p4251086.bz2.txt2020-07-09 00:07 103
[TXT]sha1sums-dewiki-20200701-pages-meta-history4.xml-p4251087p4329649.7z.txt2020-07-09 15:03 102
[TXT]sha1sums-dewiki-20200701-pages-meta-history4.xml-p4251087p4329649.bz2.txt2020-07-09 00:11 103
[TXT]sha1sums-dewiki-20200701-pages-meta-history4.xml-p4329650p4369721.7z.txt2020-07-09 15:03 102
[TXT]sha1sums-dewiki-20200701-pages-meta-history4.xml-p4329650p4369721.bz2.txt2020-07-09 00:19 103
[TXT]sha1sums-dewiki-20200701-pages-meta-history4.xml-p4369722p4469644.7z.txt2020-07-09 15:03 102
[TXT]sha1sums-dewiki-20200701-pages-meta-history4.xml-p4369722p4469644.bz2.txt2020-07-09 00:25 103
[TXT]sha1sums-dewiki-20200701-pages-meta-history4.xml-p4469645p4560198.7z.txt2020-07-09 15:04 102
[TXT]sha1sums-dewiki-20200701-pages-meta-history4.xml-p4469645p4560198.bz2.txt2020-07-09 00:29 103
[TXT]sha1sums-dewiki-20200701-pages-meta-history4.xml-p4560199p4686820.7z.txt2020-07-09 15:04 102
[TXT]sha1sums-dewiki-20200701-pages-meta-history4.xml-p4560199p4686820.bz2.txt2020-07-09 00:33 103
[TXT]sha1sums-dewiki-20200701-pages-meta-history4.xml-p4686821p4795333.7z.txt2020-07-09 15:04 102
[TXT]sha1sums-dewiki-20200701-pages-meta-history4.xml-p4686821p4795333.bz2.txt2020-07-09 00:36 103
[TXT]sha1sums-dewiki-20200701-pages-meta-history4.xml-p4795334p4904964.7z.txt2020-07-09 15:04 102
[TXT]sha1sums-dewiki-20200701-pages-meta-history4.xml-p4795334p4904964.bz2.txt2020-07-09 00:43 103
[TXT]sha1sums-dewiki-20200701-pages-meta-history4.xml-p4904965p5001983.7z.txt2020-07-09 15:04 102
[TXT]sha1sums-dewiki-20200701-pages-meta-history4.xml-p4904965p5001983.bz2.txt2020-07-09 00:47 103
[TXT]sha1sums-dewiki-20200701-pages-meta-history4.xml-p5001984p5082629.7z.txt2020-07-09 15:04 102
[TXT]sha1sums-dewiki-20200701-pages-meta-history4.xml-p5001984p5082629.bz2.txt2020-07-09 00:51 103
[TXT]sha1sums-dewiki-20200701-pages-meta-history4.xml-p5082630p5221048.7z.txt2020-07-09 15:05 102
[TXT]sha1sums-dewiki-20200701-pages-meta-history4.xml-p5082630p5221048.bz2.txt2020-07-09 00:53 103
[TXT]sha1sums-dewiki-20200701-pages-meta-history4.xml-p5221049p5341946.7z.txt2020-07-09 15:05 102
[TXT]sha1sums-dewiki-20200701-pages-meta-history4.xml-p5221049p5341946.bz2.txt2020-07-09 00:56 103
[TXT]sha1sums-dewiki-20200701-pages-meta-history4.xml-p5341947p5460592.7z.txt2020-07-09 15:05 102
[TXT]sha1sums-dewiki-20200701-pages-meta-history4.xml-p5341947p5460592.bz2.txt2020-07-09 00:58 103
[TXT]sha1sums-dewiki-20200701-pages-meta-history4.xml-p5460593p5466275.7z.txt2020-07-09 15:05 102
[TXT]sha1sums-dewiki-20200701-pages-meta-history4.xml-p5460593p5466275.bz2.txt2020-07-09 00:59 103
[TXT]sha1sums-dewiki-20200701-pages-meta-history5.xml-p5466276p5571534.7z.txt2020-07-09 15:05 102
[TXT]sha1sums-dewiki-20200701-pages-meta-history5.xml-p5466276p5571534.bz2.txt2020-07-09 01:02 103
[TXT]sha1sums-dewiki-20200701-pages-meta-history5.xml-p5571535p5699572.7z.txt2020-07-09 15:05 102
[TXT]sha1sums-dewiki-20200701-pages-meta-history5.xml-p5571535p5699572.bz2.txt2020-07-09 01:04 103
[TXT]sha1sums-dewiki-20200701-pages-meta-history5.xml-p5699573p5842124.7z.txt2020-07-09 15:06 102
[TXT]sha1sums-dewiki-20200701-pages-meta-history5.xml-p5699573p5842124.bz2.txt2020-07-09 01:07 103
[TXT]sha1sums-dewiki-20200701-pages-meta-history5.xml-p5842125p5939233.7z.txt2020-07-09 15:06 102
[TXT]sha1sums-dewiki-20200701-pages-meta-history5.xml-p5842125p5939233.bz2.txt2020-07-09 01:11 103
[TXT]sha1sums-dewiki-20200701-pages-meta-history5.xml-p5939234p6066468.7z.txt2020-07-09 15:06 102
[TXT]sha1sums-dewiki-20200701-pages-meta-history5.xml-p5939234p6066468.bz2.txt2020-07-09 01:18 103
[TXT]sha1sums-dewiki-20200701-pages-meta-history5.xml-p6066469p6166928.7z.txt2020-07-09 15:06 102
[TXT]sha1sums-dewiki-20200701-pages-meta-history5.xml-p6066469p6166928.bz2.txt2020-07-09 01:22 103
[TXT]sha1sums-dewiki-20200701-pages-meta-history5.xml-p6166929p6284045.7z.txt2020-07-09 15:06 102
[TXT]sha1sums-dewiki-20200701-pages-meta-history5.xml-p6166929p6284045.bz2.txt2020-07-09 01:25 103
[TXT]sha1sums-dewiki-20200701-pages-meta-history5.xml-p6284046p6354781.7z.txt2020-07-09 15:06 102
[TXT]sha1sums-dewiki-20200701-pages-meta-history5.xml-p6284046p6354781.bz2.txt2020-07-09 01:29 103
[TXT]sha1sums-dewiki-20200701-pages-meta-history5.xml-p6354782p6458934.7z.txt2020-07-09 15:07 102
[TXT]sha1sums-dewiki-20200701-pages-meta-history5.xml-p6354782p6458934.bz2.txt2020-07-09 01:34 103
[TXT]sha1sums-dewiki-20200701-pages-meta-history5.xml-p6458935p6529885.7z.txt2020-07-09 15:07 102
[TXT]sha1sums-dewiki-20200701-pages-meta-history5.xml-p6458935p6529885.bz2.txt2020-07-09 01:36 103
[TXT]sha1sums-dewiki-20200701-pages-meta-history5.xml-p6529886p6557837.7z.txt2020-07-09 15:07 102
[TXT]sha1sums-dewiki-20200701-pages-meta-history5.xml-p6529886p6557837.bz2.txt2020-07-09 01:42 103
[TXT]sha1sums-dewiki-20200701-pages-meta-history5.xml-p6557838p6611238.7z.txt2020-07-09 15:07 102
[TXT]sha1sums-dewiki-20200701-pages-meta-history5.xml-p6557838p6611238.bz2.txt2020-07-09 01:43 103
[TXT]sha1sums-dewiki-20200701-pages-meta-history5.xml-p6611239p6644957.7z.txt2020-07-09 15:07 102
[TXT]sha1sums-dewiki-20200701-pages-meta-history5.xml-p6611239p6644957.bz2.txt2020-07-09 01:49 103
[TXT]sha1sums-dewiki-20200701-pages-meta-history5.xml-p6644958p6678807.7z.txt2020-07-09 15:07 102
[TXT]sha1sums-dewiki-20200701-pages-meta-history5.xml-p6644958p6678807.bz2.txt2020-07-09 01:50 103
[TXT]sha1sums-dewiki-20200701-pages-meta-history5.xml-p6678808p6726819.7z.txt2020-07-09 15:07 102
[TXT]sha1sums-dewiki-20200701-pages-meta-history5.xml-p6678808p6726819.bz2.txt2020-07-09 01:54 103
[TXT]sha1sums-dewiki-20200701-pages-meta-history5.xml-p6726820p6790940.7z.txt2020-07-09 15:08 102
[TXT]sha1sums-dewiki-20200701-pages-meta-history5.xml-p6726820p6790940.bz2.txt2020-07-09 01:58 103
[TXT]sha1sums-dewiki-20200701-pages-meta-history5.xml-p6790941p6904308.7z.txt2020-07-09 15:08 102
[TXT]sha1sums-dewiki-20200701-pages-meta-history5.xml-p6790941p6904308.bz2.txt2020-07-09 02:00 103
[TXT]sha1sums-dewiki-20200701-pages-meta-history5.xml-p6904309p6972095.7z.txt2020-07-09 15:08 102
[TXT]sha1sums-dewiki-20200701-pages-meta-history5.xml-p6904309p6972095.bz2.txt2020-07-09 02:01 103
[TXT]sha1sums-dewiki-20200701-pages-meta-history5.xml-p6972096p7030664.7z.txt2020-07-09 15:08 102
[TXT]sha1sums-dewiki-20200701-pages-meta-history5.xml-p6972096p7030664.bz2.txt2020-07-09 02:03 103
[TXT]sha1sums-dewiki-20200701-pages-meta-history5.xml-p7030665p7073089.7z.txt2020-07-09 15:08 102
[TXT]sha1sums-dewiki-20200701-pages-meta-history5.xml-p7030665p7073089.bz2.txt2020-07-09 02:03 103
[TXT]sha1sums-dewiki-20200701-pages-meta-history5.xml-p7073090p7075995.7z.txt2020-07-09 15:08 102
[TXT]sha1sums-dewiki-20200701-pages-meta-history5.xml-p7073090p7075995.bz2.txt2020-07-09 02:03 103
[TXT]sha1sums-dewiki-20200701-pages-meta-history5.xml-p7075996p7076352.7z.txt2020-07-09 15:08 102
[TXT]sha1sums-dewiki-20200701-pages-meta-history5.xml-p7075996p7076352.bz2.txt2020-07-09 02:03 103
[TXT]sha1sums-dewiki-20200701-pages-meta-history5.xml-p7076353p7076707.7z.txt2020-07-09 15:08 102
[TXT]sha1sums-dewiki-20200701-pages-meta-history5.xml-p7076353p7076707.bz2.txt2020-07-09 02:14 103
[TXT]sha1sums-dewiki-20200701-pages-meta-history5.xml-p7076708p7171592.7z.txt2020-07-09 15:08 102
[TXT]sha1sums-dewiki-20200701-pages-meta-history5.xml-p7076708p7171592.bz2.txt2020-07-09 02:15 103
[TXT]sha1sums-dewiki-20200701-pages-meta-history5.xml-p7171593p7388583.7z.txt2020-07-09 15:09 102
[TXT]sha1sums-dewiki-20200701-pages-meta-history5.xml-p7171593p7388583.bz2.txt2020-07-09 02:17 103
[TXT]sha1sums-dewiki-20200701-pages-meta-history5.xml-p7388584p7530812.7z.txt2020-07-09 15:09 102
[TXT]sha1sums-dewiki-20200701-pages-meta-history5.xml-p7388584p7530812.bz2.txt2020-07-09 02:20 103
[TXT]sha1sums-dewiki-20200701-pages-meta-history5.xml-p7530813p7658659.7z.txt2020-07-09 15:09 102
[TXT]sha1sums-dewiki-20200701-pages-meta-history5.xml-p7530813p7658659.bz2.txt2020-07-09 02:21 103
[TXT]sha1sums-dewiki-20200701-pages-meta-history5.xml-p7658660p7770117.7z.txt2020-07-09 15:09 102
[TXT]sha1sums-dewiki-20200701-pages-meta-history5.xml-p7658660p7770117.bz2.txt2020-07-09 02:23 103
[TXT]sha1sums-dewiki-20200701-pages-meta-history5.xml-p7770118p7913879.7z.txt2020-07-09 15:09 102
[TXT]sha1sums-dewiki-20200701-pages-meta-history5.xml-p7770118p7913879.bz2.txt2020-07-09 02:24 103
[TXT]sha1sums-dewiki-20200701-pages-meta-history5.xml-p7913880p8039743.7z.txt2020-07-09 15:10 102
[TXT]sha1sums-dewiki-20200701-pages-meta-history5.xml-p7913880p8039743.bz2.txt2020-07-09 02:26 103
[TXT]sha1sums-dewiki-20200701-pages-meta-history5.xml-p8039744p8153806.7z.txt2020-07-09 15:10 102
[TXT]sha1sums-dewiki-20200701-pages-meta-history5.xml-p8039744p8153806.bz2.txt2020-07-09 02:27 103
[TXT]sha1sums-dewiki-20200701-pages-meta-history5.xml-p8153807p8303172.7z.txt2020-07-09 15:10 102
[TXT]sha1sums-dewiki-20200701-pages-meta-history5.xml-p8153807p8303172.bz2.txt2020-07-09 02:29 103
[TXT]sha1sums-dewiki-20200701-pages-meta-history5.xml-p8303173p8342168.7z.txt2020-07-09 15:10 102
[TXT]sha1sums-dewiki-20200701-pages-meta-history5.xml-p8303173p8342168.bz2.txt2020-07-09 02:30 103
[TXT]sha1sums-dewiki-20200701-pages-meta-history6.xml-p8342169p8476940.7z.txt2020-07-09 15:10 102
[TXT]sha1sums-dewiki-20200701-pages-meta-history6.xml-p8342169p8476940.bz2.txt2020-07-09 02:32 103
[TXT]sha1sums-dewiki-20200701-pages-meta-history6.xml-p8476941p8617794.7z.txt2020-07-09 15:10 102
[TXT]sha1sums-dewiki-20200701-pages-meta-history6.xml-p8476941p8617794.bz2.txt2020-07-09 02:33 103
[TXT]sha1sums-dewiki-20200701-pages-meta-history6.xml-p8617795p8854840.7z.txt2020-07-09 15:11 102
[TXT]sha1sums-dewiki-20200701-pages-meta-history6.xml-p8617795p8854840.bz2.txt2020-07-09 02:34 103
[TXT]sha1sums-dewiki-20200701-pages-meta-history6.xml-p8854841p8967497.7z.txt2020-07-09 15:11 102
[TXT]sha1sums-dewiki-20200701-pages-meta-history6.xml-p8854841p8967497.bz2.txt2020-07-09 02:36 103
[TXT]sha1sums-dewiki-20200701-pages-meta-history6.xml-p8967498p9064904.7z.txt2020-07-09 15:11 102
[TXT]sha1sums-dewiki-20200701-pages-meta-history6.xml-p8967498p9064904.bz2.txt2020-07-09 02:38 103
[TXT]sha1sums-dewiki-20200701-pages-meta-history6.xml-p9064905p9082209.7z.txt2020-07-09 15:11 102
[TXT]sha1sums-dewiki-20200701-pages-meta-history6.xml-p9064905p9082209.bz2.txt2020-07-09 02:38 103
[TXT]sha1sums-dewiki-20200701-pages-meta-history6.xml-p9082210p9082339.7z.txt2020-07-09 15:11 102
[TXT]sha1sums-dewiki-20200701-pages-meta-history6.xml-p9082210p9082339.bz2.txt2020-07-09 02:38 103
[TXT]sha1sums-dewiki-20200701-pages-meta-history6.xml-p9082340p9082591.7z.txt2020-07-09 15:11 102
[TXT]sha1sums-dewiki-20200701-pages-meta-history6.xml-p9082340p9082591.bz2.txt2020-07-09 02:45 103
[TXT]sha1sums-dewiki-20200701-pages-meta-history6.xml-p9082592p9235861.7z.txt2020-07-09 15:11 102
[TXT]sha1sums-dewiki-20200701-pages-meta-history6.xml-p9082592p9235861.bz2.txt2020-07-09 02:48 103
[TXT]sha1sums-dewiki-20200701-pages-meta-history6.xml-p9235862p9430702.7z.txt2020-07-09 15:12 102
[TXT]sha1sums-dewiki-20200701-pages-meta-history6.xml-p9235862p9430702.bz2.txt2020-07-09 02:50 103
[TXT]sha1sums-dewiki-20200701-pages-meta-history6.xml-p9430703p9574477.7z.txt2020-07-09 15:12 102
[TXT]sha1sums-dewiki-20200701-pages-meta-history6.xml-p9430703p9574477.bz2.txt2020-07-09 02:52 103
[TXT]sha1sums-dewiki-20200701-pages-meta-history6.xml-p9574478p9651705.7z.txt2020-07-09 15:12 102
[TXT]sha1sums-dewiki-20200701-pages-meta-history6.xml-p9574478p9651705.bz2.txt2020-07-09 02:54 103
[TXT]sha1sums-dewiki-20200701-pages-meta-history6.xml-p9651706p9740496.7z.txt2020-07-09 15:12 102
[TXT]sha1sums-dewiki-20200701-pages-meta-history6.xml-p9651706p9740496.bz2.txt2020-07-09 02:55 103
[TXT]sha1sums-dewiki-20200701-pages-meta-history6.xml-p9740497p9759809.7z.txt2020-07-09 15:12 102
[TXT]sha1sums-dewiki-20200701-pages-meta-history6.xml-p9740497p9759809.bz2.txt2020-07-09 02:57 103
[TXT]sha1sums-dewiki-20200701-pages-meta-history6.xml-p9759810p9908531.7z.txt2020-07-09 15:13 102
[TXT]sha1sums-dewiki-20200701-pages-meta-history6.xml-p9759810p9908531.bz2.txt2020-07-09 02:59 103
[TXT]sha1sums-dewiki-20200701-pages-meta-history6.xml-p9908532p10007090.7z.txt2020-07-09 15:13 103
[TXT]sha1sums-dewiki-20200701-pages-meta-history6.xml-p9908532p10007090.bz2.txt2020-07-09 03:01 104
[TXT]sha1sums-dewiki-20200701-pages-meta-history6.xml-p10007091p10157366.7z.txt2020-07-09 15:13 104
[TXT]sha1sums-dewiki-20200701-pages-meta-history6.xml-p10007091p10157366.bz2.txt2020-07-09 03:02 105
[TXT]sha1sums-dewiki-20200701-pages-meta-history6.xml-p10157367p10261596.7z.txt2020-07-09 15:13 104
[TXT]sha1sums-dewiki-20200701-pages-meta-history6.xml-p10157367p10261596.bz2.txt2020-07-09 03:05 105
[TXT]sha1sums-dewiki-20200701-pages-meta-history6.xml-p10261597p10453597.7z.txt2020-07-09 15:14 104
[TXT]sha1sums-dewiki-20200701-pages-meta-history6.xml-p10261597p10453597.bz2.txt2020-07-09 03:07 105
[TXT]sha1sums-dewiki-20200701-pages-meta-history6.xml-p10453598p10684216.7z.txt2020-07-09 15:14 104
[TXT]sha1sums-dewiki-20200701-pages-meta-history6.xml-p10453598p10684216.bz2.txt2020-07-09 03:09 105
[TXT]sha1sums-dewiki-20200701-pages-meta-history6.xml-p10684217p10907502.7z.txt2020-07-09 15:14 104
[TXT]sha1sums-dewiki-20200701-pages-meta-history6.xml-p10684217p10907502.bz2.txt2020-07-09 03:10 105
[TXT]sha1sums-dewiki-20200701-pages-meta-history6.xml-p10907503p11154155.7z.txt2020-07-09 15:14 104
[TXT]sha1sums-dewiki-20200701-pages-meta-history6.xml-p10907503p11154155.bz2.txt2020-07-09 03:11 105
[TXT]sha1sums-dewiki-20200701-pages-meta-history6.xml-p11154156p11256311.7z.txt2020-07-09 15:15 104
[TXT]sha1sums-dewiki-20200701-pages-meta-history6.xml-p11154156p11256311.bz2.txt2020-07-09 03:14 105
[TXT]sha1sums-dewiki-20200701-pages-meta-history6.xml-p11256312p11361661.7z.txt2020-07-09 15:15 104
[TXT]sha1sums-dewiki-20200701-pages-meta-history6.xml-p11256312p11361661.bz2.txt2020-07-09 03:14 105
[TXT]sha1sums-dewiki-20200701-protected_titles.sql.gz.txt2020-07-02 15:02 82
[TXT]sha1sums-dewiki-20200701-redirect.sql.gz.txt2020-07-02 17:11 74
[TXT]sha1sums-dewiki-20200701-site_stats.sql.gz.txt2020-07-02 16:40 76
[TXT]sha1sums-dewiki-20200701-siteinfo-namespaces.json.gz.txt2020-07-06 05:39 86
[TXT]sha1sums-dewiki-20200701-sites.sql.gz.txt2020-07-02 15:06 71
[TXT]sha1sums-dewiki-20200701-stub-articles.xml.gz.txt2020-07-02 13:57 79
[TXT]sha1sums-dewiki-20200701-stub-articles1.xml.gz.txt2020-07-02 13:02 80
[TXT]sha1sums-dewiki-20200701-stub-articles2.xml.gz.txt2020-07-02 13:02 80
[TXT]sha1sums-dewiki-20200701-stub-articles3.xml.gz.txt2020-07-02 13:02 80
[TXT]sha1sums-dewiki-20200701-stub-articles4.xml.gz.txt2020-07-02 13:02 80
[TXT]sha1sums-dewiki-20200701-stub-articles5.xml.gz.txt2020-07-02 13:03 80
[TXT]sha1sums-dewiki-20200701-stub-articles6.xml.gz.txt2020-07-02 13:03 80
[TXT]sha1sums-dewiki-20200701-stub-meta-current.xml.gz.txt2020-07-02 13:57 83
[TXT]sha1sums-dewiki-20200701-stub-meta-current1.xml.gz.txt2020-07-02 13:01 84
[TXT]sha1sums-dewiki-20200701-stub-meta-current2.xml.gz.txt2020-07-02 13:01 84
[TXT]sha1sums-dewiki-20200701-stub-meta-current3.xml.gz.txt2020-07-02 13:01 84
[TXT]sha1sums-dewiki-20200701-stub-meta-current4.xml.gz.txt2020-07-02 13:01 84
[TXT]sha1sums-dewiki-20200701-stub-meta-current5.xml.gz.txt2020-07-02 13:02 84
[TXT]sha1sums-dewiki-20200701-stub-meta-current6.xml.gz.txt2020-07-02 13:02 84
[TXT]sha1sums-dewiki-20200701-stub-meta-history.xml.gz.txt2020-07-02 13:56 83
[TXT]sha1sums-dewiki-20200701-stub-meta-history1.xml.gz.txt2020-07-02 12:38 84
[TXT]sha1sums-dewiki-20200701-stub-meta-history2.xml.gz.txt2020-07-02 12:43 84
[TXT]sha1sums-dewiki-20200701-stub-meta-history3.xml.gz.txt2020-07-02 12:51 84
[TXT]sha1sums-dewiki-20200701-stub-meta-history4.xml.gz.txt2020-07-02 12:55 84
[TXT]sha1sums-dewiki-20200701-stub-meta-history5.xml.gz.txt2020-07-02 12:58 84
[TXT]sha1sums-dewiki-20200701-stub-meta-history6.xml.gz.txt2020-07-02 13:01 84
[TXT]sha1sums-dewiki-20200701-templatelinks.sql.gz.txt2020-07-02 14:14 79
[TXT]sha1sums-dewiki-20200701-user_former_groups.sql.gz.txt2020-07-02 15:20 84
[TXT]sha1sums-dewiki-20200701-user_groups.sql.gz.txt2020-07-02 15:03 77
[TXT]sha1sums-dewiki-20200701-wbc_entity_usage.sql.gz.txt2020-07-02 16:43 82
[HTM]status.html2020-07-09 15:17 107

Apache/2.4.41 (Unix) Server at ftp.acc.umu.se Port 443